<?xml version="1.0" encoding="windows-1252"?>
<gpx version="1.0" creator="GpsPrune v18.6 activityworkshop.net"
 xmlns:xsi="http://www.w3.org/2001/XMLSchema-instance"
 xmlns="http://www.topografix.com/GPX/1/0" xsi:schemaLocation="http://www.topografix.com/GPX/1/0 http://www.topografix.com/GPX/1/0/gpx.xsd">

	<name>Oak Flats Walkabout.Pat.2021-04-17</name>
	<desc>Export from GpsPrune</desc>
	<trk>
		<name>Oak Flats Walkabout.Pat.2021-04-17</name>
		<number>1</number>
		<trkseg>
			<trkpt lat="34.9965094" lon="-106.31988438">
				<ele>2315.2</ele>
				<time>2021-04-17T19:34:03Z</time>
			</trkpt>
			<trkpt lat="34.99648485" lon="-106.31992375">
				<ele>2315.1</ele>
				<time>2021-04-17T19:34:25Z</time>
			</trkpt>
			<trkpt lat="34.99647751" lon="-106.31996866">
				<ele>2312.6</ele>
				<time>2021-04-17T19:34:32Z</time>
			</trkpt>
			<trkpt lat="34.99647256" lon="-106.3200141">
				<ele>2310.5</ele>
				<time>2021-04-17T19:34:40Z</time>
			</trkpt>
			<trkpt lat="34.99649146" lon="-106.32005686">
				<ele>2311</ele>
				<time>2021-04-17T19:37:24Z</time>
			</trkpt>
			<trkpt lat="34.99652814" lon="-106.32008196">
				<ele>2309.9</ele>
				<time>2021-04-17T19:37:29Z</time>
			</trkpt>
			<trkpt lat="34.9965562" lon="-106.32011289">
				<ele>2310.3</ele>
				<time>2021-04-17T19:37:34Z</time>
			</trkpt>
			<trkpt lat="34.99659087" lon="-106.32013645">
				<ele>2311.4</ele>
				<time>2021-04-17T19:37:38Z</time>
			</trkpt>
			<trkpt lat="34.99662727" lon="-106.32016304">
				<ele>2312.9</ele>
				<time>2021-04-17T19:37:43Z</time>
			</trkpt>
			<trkpt lat="34.99666025" lon="-106.32018295">
				<ele>2313.8</ele>
				<time>2021-04-17T19:37:47Z</time>
			</trkpt>
			<trkpt lat="34.99669223" lon="-106.32020347">
				<ele>2314.8</ele>
				<time>2021-04-17T19:37:51Z</time>
			</trkpt>
			<trkpt lat="34.99673202" lon="-106.32022892">
				<ele>2315.5</ele>
				<time>2021-04-17T19:37:55Z</time>
			</trkpt>
			<trkpt lat="34.99677032" lon="-106.32023094">
				<ele>2316.4</ele>
				<time>2021-04-17T19:38:00Z</time>
			</trkpt>
			<trkpt lat="34.99681627" lon="-106.32024285">
				<ele>2317</ele>
				<time>2021-04-17T19:38:05Z</time>
			</trkpt>
			<trkpt lat="34.99685942" lon="-106.32024892">
				<ele>2316.6</ele>
				<time>2021-04-17T19:38:09Z</time>
			</trkpt>
			<trkpt lat="34.99690027" lon="-106.32026965">
				<ele>2317.3</ele>
				<time>2021-04-17T19:38:13Z</time>
			</trkpt>
			<trkpt lat="34.99694371" lon="-106.32027416">
				<ele>2317.7</ele>
				<time>2021-04-17T19:38:17Z</time>
			</trkpt>
			<trkpt lat="34.99698099" lon="-106.3202718">
				<ele>2317.5</ele>
				<time>2021-04-17T19:38:20Z</time>
			</trkpt>
			<trkpt lat="34.99702456" lon="-106.32027011">
				<ele>2317.2</ele>
				<time>2021-04-17T19:38:24Z</time>
			</trkpt>
			<trkpt lat="34.99706267" lon="-106.32024339">
				<ele>2316.6</ele>
				<time>2021-04-17T19:38:30Z</time>
			</trkpt>
			<trkpt lat="34.99710412" lon="-106.3202614">
				<ele>2317.6</ele>
				<time>2021-04-17T19:38:35Z</time>
			</trkpt>
			<trkpt lat="34.99714371" lon="-106.32027369">
				<ele>2318.9</ele>
				<time>2021-04-17T19:38:40Z</time>
			</trkpt>
			<trkpt lat="34.99718495" lon="-106.32028975">
				<ele>2319.4</ele>
				<time>2021-04-17T19:38:45Z</time>
			</trkpt>
			<trkpt lat="34.99723039" lon="-106.32029075">
				<ele>2319.7</ele>
				<time>2021-04-17T19:38:49Z</time>
			</trkpt>
			<trkpt lat="34.99727019" lon="-106.32028328">
				<ele>2319.5</ele>
				<time>2021-04-17T19:38:53Z</time>
			</trkpt>
			<trkpt lat="34.99731588" lon="-106.32029063">
				<ele>2320</ele>
				<time>2021-04-17T19:39:02Z</time>
			</trkpt>
			<trkpt lat="34.99735656" lon="-106.32028145">
				<ele>2319.9</ele>
				<time>2021-04-17T19:39:06Z</time>
			</trkpt>
			<trkpt lat="34.99739319" lon="-106.32027883">
				<ele>2320</ele>
				<time>2021-04-17T19:39:09Z</time>
			</trkpt>
			<trkpt lat="34.99743096" lon="-106.32027706">
				<ele>2319.8</ele>
				<time>2021-04-17T19:39:12Z</time>
			</trkpt>
			<trkpt lat="34.997467" lon="-106.32025228">
				<ele>2318.3</ele>
				<time>2021-04-17T19:39:16Z</time>
			</trkpt>
			<trkpt lat="34.99751063" lon="-106.32023306">
				<ele>2317.9</ele>
				<time>2021-04-17T19:39:21Z</time>
			</trkpt>
			<trkpt lat="34.99754797" lon="-106.32021343">
				<ele>2317.2</ele>
				<time>2021-04-17T19:39:25Z</time>
			</trkpt>
			<trkpt lat="34.99758565" lon="-106.32020281">
				<ele>2318.3</ele>
				<time>2021-04-17T19:39:29Z</time>
			</trkpt>
			<trkpt lat="34.99762653" lon="-106.32018609">
				<ele>2318.3</ele>
				<time>2021-04-17T19:39:33Z</time>
			</trkpt>
			<trkpt lat="34.99766681" lon="-106.32015419">
				<ele>2317.3</ele>
				<time>2021-04-17T19:39:37Z</time>
			</trkpt>
			<trkpt lat="34.99769958" lon="-106.32011653">
				<ele>2316.5</ele>
				<time>2021-04-17T19:39:41Z</time>
			</trkpt>
			<trkpt lat="34.99772982" lon="-106.320086">
				<ele>2315.9</ele>
				<time>2021-04-17T19:39:45Z</time>
			</trkpt>
			<trkpt lat="34.99776785" lon="-106.32006415">
				<ele>2315.1</ele>
				<time>2021-04-17T19:39:49Z</time>
			</trkpt>
			<trkpt lat="34.99780788" lon="-106.32004632">
				<ele>2314.1</ele>
				<time>2021-04-17T19:39:53Z</time>
			</trkpt>
			<trkpt lat="34.99784995" lon="-106.32004129">
				<ele>2314.1</ele>
				<time>2021-04-17T19:39:57Z</time>
			</trkpt>
			<trkpt lat="34.99788869" lon="-106.32001633">
				<ele>2313.7</ele>
				<time>2021-04-17T19:40:01Z</time>
			</trkpt>
			<trkpt lat="34.99792536" lon="-106.31998862">
				<ele>2312.8</ele>
				<time>2021-04-17T19:40:05Z</time>
			</trkpt>
			<trkpt lat="34.99796205" lon="-106.3199717">
				<ele>2314.1</ele>
				<time>2021-04-17T19:40:09Z</time>
			</trkpt>
			<trkpt lat="34.99800637" lon="-106.31996277">
				<ele>2314.8</ele>
				<time>2021-04-17T19:40:14Z</time>
			</trkpt>
			<trkpt lat="34.99804336" lon="-106.31995892">
				<ele>2316</ele>
				<time>2021-04-17T19:40:19Z</time>
			</trkpt>
			<trkpt lat="34.99807866" lon="-106.3199702">
				<ele>2318.5</ele>
				<time>2021-04-17T19:40:24Z</time>
			</trkpt>
			<trkpt lat="34.9981164" lon="-106.31998584">
				<ele>2319.5</ele>
				<time>2021-04-17T19:40:29Z</time>
			</trkpt>
			<trkpt lat="34.99816018" lon="-106.31998584">
				<ele>2319.5</ele>
				<time>2021-04-17T19:40:34Z</time>
			</trkpt>
			<trkpt lat="34.9982051" lon="-106.3199782">
				<ele>2319.7</ele>
				<time>2021-04-17T19:40:38Z</time>
			</trkpt>
			<trkpt lat="34.99824774" lon="-106.31997207">
				<ele>2319.5</ele>
				<time>2021-04-17T19:40:42Z</time>
			</trkpt>
			<trkpt lat="34.99828412" lon="-106.31997062">
				<ele>2319.2</ele>
				<time>2021-04-17T19:40:45Z</time>
			</trkpt>
			<trkpt lat="34.99832486" lon="-106.31996032">
				<ele>2319</ele>
				<time>2021-04-17T19:40:48Z</time>
			</trkpt>
			<trkpt lat="34.99836498" lon="-106.31995453">
				<ele>2319.7</ele>
				<time>2021-04-17T19:40:52Z</time>
			</trkpt>
			<trkpt lat="34.99840545" lon="-106.31995484">
				<ele>2320.1</ele>
				<time>2021-04-17T19:40:56Z</time>
			</trkpt>
			<trkpt lat="34.99844827" lon="-106.31995822">
				<ele>2321.3</ele>
				<time>2021-04-17T19:41:00Z</time>
			</trkpt>
			<trkpt lat="34.99849383" lon="-106.31996295">
				<ele>2321.5</ele>
				<time>2021-04-17T19:41:04Z</time>
			</trkpt>
			<trkpt lat="34.99853618" lon="-106.31996164">
				<ele>2320.9</ele>
				<time>2021-04-17T19:41:08Z</time>
			</trkpt>
			<trkpt lat="34.99858182" lon="-106.31996291">
				<ele>2320.3</ele>
				<time>2021-04-17T19:41:12Z</time>
			</trkpt>
			<trkpt lat="34.9986229" lon="-106.31996465">
				<ele>2321</ele>
				<time>2021-04-17T19:41:16Z</time>
			</trkpt>
			<trkpt lat="34.99866325" lon="-106.31996099">
				<ele>2321.2</ele>
				<time>2021-04-17T19:41:20Z</time>
			</trkpt>
			<trkpt lat="34.99870505" lon="-106.31994734">
				<ele>2321.8</ele>
				<time>2021-04-17T19:41:24Z</time>
			</trkpt>
			<trkpt lat="34.99874364" lon="-106.31991769">
				<ele>2322.4</ele>
				<time>2021-04-17T19:41:28Z</time>
			</trkpt>
			<trkpt lat="34.99877065" lon="-106.31988446">
				<ele>2322.5</ele>
				<time>2021-04-17T19:41:32Z</time>
			</trkpt>
			<trkpt lat="34.9988055" lon="-106.31984598">
				<ele>2319.3</ele>
				<time>2021-04-17T19:41:36Z</time>
			</trkpt>
			<trkpt lat="34.99884178" lon="-106.31982345">
				<ele>2320</ele>
				<time>2021-04-17T19:41:39Z</time>
			</trkpt>
			<trkpt lat="34.99888138" lon="-106.31980065">
				<ele>2319.3</ele>
				<time>2021-04-17T19:41:45Z</time>
			</trkpt>
			<trkpt lat="34.99892351" lon="-106.31979307">
				<ele>2318.6</ele>
				<time>2021-04-17T19:41:48Z</time>
			</trkpt>
			<trkpt lat="34.9989611" lon="-106.31976877">
				<ele>2319.1</ele>
				<time>2021-04-17T19:41:53Z</time>
			</trkpt>
			<trkpt lat="34.99899489" lon="-106.31975291">
				<ele>2319.7</ele>
				<time>2021-04-17T19:41:57Z</time>
			</trkpt>
			<trkpt lat="34.99903284" lon="-106.31972748">
				<ele>2319</ele>
				<time>2021-04-17T19:42:02Z</time>
			</trkpt>
			<trkpt lat="34.99907202" lon="-106.31971276">
				<ele>2319.2</ele>
				<time>2021-04-17T19:42:06Z</time>
			</trkpt>
			<trkpt lat="34.999108" lon="-106.3197206">
				<ele>2319.4</ele>
				<time>2021-04-17T19:42:09Z</time>
			</trkpt>
			<trkpt lat="34.99914823" lon="-106.31972904">
				<ele>2320</ele>
				<time>2021-04-17T19:42:14Z</time>
			</trkpt>
			<trkpt lat="34.99919377" lon="-106.31973944">
				<ele>2321.4</ele>
				<time>2021-04-17T19:42:18Z</time>
			</trkpt>
			<trkpt lat="34.99923261" lon="-106.31975274">
				<ele>2321.9</ele>
				<time>2021-04-17T19:42:22Z</time>
			</trkpt>
			<trkpt lat="34.99926941" lon="-106.31974559">
				<ele>2320.7</ele>
				<time>2021-04-17T19:42:25Z</time>
			</trkpt>
			<trkpt lat="34.99930769" lon="-106.31973802">
				<ele>2320.1</ele>
				<time>2021-04-17T19:42:28Z</time>
			</trkpt>
			<trkpt lat="34.99935346" lon="-106.31973874">
				<ele>2319.5</ele>
				<time>2021-04-17T19:42:34Z</time>
			</trkpt>
			<trkpt lat="34.99939384" lon="-106.31972426">
				<ele>2319.8</ele>
				<time>2021-04-17T19:42:38Z</time>
			</trkpt>
			<trkpt lat="34.9994413" lon="-106.31971543">
				<ele>2317.8</ele>
				<time>2021-04-17T19:42:42Z</time>
			</trkpt>
			<trkpt lat="34.99948845" lon="-106.31970699">
				<ele>2316.3</ele>
				<time>2021-04-17T19:42:46Z</time>
			</trkpt>
			<trkpt lat="34.99953186" lon="-106.31970386">
				<ele>2316.7</ele>
				<time>2021-04-17T19:42:51Z</time>
			</trkpt>
			<trkpt lat="34.99956732" lon="-106.31971345">
				<ele>2316.2</ele>
				<time>2021-04-17T19:42:55Z</time>
			</trkpt>
			<trkpt lat="34.9995963" lon="-106.31974695">
				<ele>2314.8</ele>
				<time>2021-04-17T19:43:02Z</time>
			</trkpt>
			<trkpt lat="34.99962014" lon="-106.31978458">
				<ele>2315.5</ele>
				<time>2021-04-17T19:43:07Z</time>
			</trkpt>
			<trkpt lat="34.99965309" lon="-106.31981431">
				<ele>2315.5</ele>
				<time>2021-04-17T19:43:12Z</time>
			</trkpt>
			<trkpt lat="34.99969265" lon="-106.31984013">
				<ele>2315.3</ele>
				<time>2021-04-17T19:43:16Z</time>
			</trkpt>
			<trkpt lat="34.99973098" lon="-106.31985742">
				<ele>2315.5</ele>
				<time>2021-04-17T19:43:19Z</time>
			</trkpt>
			<trkpt lat="34.99977229" lon="-106.31988245">
				<ele>2313.7</ele>
				<time>2021-04-17T19:43:23Z</time>
			</trkpt>
			<trkpt lat="34.99980633" lon="-106.3199042">
				<ele>2314</ele>
				<time>2021-04-17T19:43:26Z</time>
			</trkpt>
			<trkpt lat="34.99983656" lon="-106.31993767">
				<ele>2314.6</ele>
				<time>2021-04-17T19:43:30Z</time>
			</trkpt>
			<trkpt lat="34.999867" lon="-106.3199756">
				<ele>2316.7</ele>
				<time>2021-04-17T19:43:35Z</time>
			</trkpt>
			<trkpt lat="34.99990223" lon="-106.31999973">
				<ele>2315.7</ele>
				<time>2021-04-17T19:43:39Z</time>
			</trkpt>
			<trkpt lat="34.99994129" lon="-106.32001416">
				<ele>2316.7</ele>
				<time>2021-04-17T19:43:42Z</time>
			</trkpt>
			<trkpt lat="34.99998151" lon="-106.32003939">
				<ele>2317</ele>
				<time>2021-04-17T19:43:46Z</time>
			</trkpt>
			<trkpt lat="35.00001717" lon="-106.32005954">
				<ele>2316.9</ele>
				<time>2021-04-17T19:43:50Z</time>
			</trkpt>
			<trkpt lat="35.00005814" lon="-106.32008579">
				<ele>2316.2</ele>
				<time>2021-04-17T19:43:54Z</time>
			</trkpt>
			<trkpt lat="35.00009496" lon="-106.32010206">
				<ele>2314.4</ele>
				<time>2021-04-17T19:43:58Z</time>
			</trkpt>
			<trkpt lat="35.00013343" lon="-106.32012899">
				<ele>2313.5</ele>
				<time>2021-04-17T19:44:02Z</time>
			</trkpt>
			<trkpt lat="35.00016849" lon="-106.32016056">
				<ele>2313.9</ele>
				<time>2021-04-17T19:44:06Z</time>
			</trkpt>
			<trkpt lat="35.00019799" lon="-106.32018926">
				<ele>2314.5</ele>
				<time>2021-04-17T19:44:10Z</time>
			</trkpt>
			<trkpt lat="35.00022886" lon="-106.32021297">
				<ele>2314.2</ele>
				<time>2021-04-17T19:44:13Z</time>
			</trkpt>
			<trkpt lat="35.00026152" lon="-106.32024884">
				<ele>2315.1</ele>
				<time>2021-04-17T19:44:17Z</time>
			</trkpt>
			<trkpt lat="35.00029587" lon="-106.32026696">
				<ele>2315</ele>
				<time>2021-04-17T19:44:20Z</time>
			</trkpt>
			<trkpt lat="35.00033797" lon="-106.32028434">
				<ele>2314.2</ele>
				<time>2021-04-17T19:44:24Z</time>
			</trkpt>
			<trkpt lat="35.00037749" lon="-106.32029906">
				<ele>2314</ele>
				<time>2021-04-17T19:44:28Z</time>
			</trkpt>
			<trkpt lat="35.00042268" lon="-106.32032003">
				<ele>2313.6</ele>
				<time>2021-04-17T19:44:32Z</time>
			</trkpt>
			<trkpt lat="35.00045686" lon="-106.32030552">
				<ele>2312.9</ele>
				<time>2021-04-17T19:44:38Z</time>
			</trkpt>
			<trkpt lat="35.00049614" lon="-106.32032675">
				<ele>2312.4</ele>
				<time>2021-04-17T19:44:43Z</time>
			</trkpt>
			<trkpt lat="35.00053596" lon="-106.32033544">
				<ele>2312.1</ele>
				<time>2021-04-17T19:44:48Z</time>
			</trkpt>
			<trkpt lat="35.00057265" lon="-106.32035204">
				<ele>2313.6</ele>
				<time>2021-04-17T19:44:52Z</time>
			</trkpt>
			<trkpt lat="35.00061609" lon="-106.32034818">
				<ele>2314.4</ele>
				<time>2021-04-17T19:44:57Z</time>
			</trkpt>
			<trkpt lat="35.00065901" lon="-106.32034096">
				<ele>2315.2</ele>
				<time>2021-04-17T19:45:02Z</time>
			</trkpt>
			<trkpt lat="35.00070097" lon="-106.32033821">
				<ele>2315.4</ele>
				<time>2021-04-17T19:45:06Z</time>
			</trkpt>
			<trkpt lat="35.00071073" lon="-106.32028593">
				<ele>2316.8</ele>
				<time>2021-04-17T19:45:14Z</time>
			</trkpt>
			<trkpt lat="35.00072364" lon="-106.32023391">
				<ele>2316.9</ele>
				<time>2021-04-17T19:45:19Z</time>
			</trkpt>
			<trkpt lat="35.00072895" lon="-106.32018273">
				<ele>2315.9</ele>
				<time>2021-04-17T19:45:23Z</time>
			</trkpt>
			<trkpt lat="35.0007515" lon="-106.32014133">
				<ele>2317.7</ele>
				<time>2021-04-17T19:45:27Z</time>
			</trkpt>
			<trkpt lat="35.00077734" lon="-106.32010129">
				<ele>2316.4</ele>
				<time>2021-04-17T19:45:32Z</time>
			</trkpt>
			<trkpt lat="35.00078294" lon="-106.32004737">
				<ele>2316.5</ele>
				<time>2021-04-17T19:45:38Z</time>
			</trkpt>
			<trkpt lat="35.00079265" lon="-106.31999045">
				<ele>2316.1</ele>
				<time>2021-04-17T19:45:42Z</time>
			</trkpt>
			<trkpt lat="35.00079688" lon="-106.31993326">
				<ele>2315.4</ele>
				<time>2021-04-17T19:45:46Z</time>
			</trkpt>
			<trkpt lat="35.00079133" lon="-106.31988855">
				<ele>2315.9</ele>
				<time>2021-04-17T19:45:49Z</time>
			</trkpt>
			<trkpt lat="35.00076943" lon="-106.3198406">
				<ele>2315.7</ele>
				<time>2021-04-17T19:45:52Z</time>
			</trkpt>
			<trkpt lat="35.00072518" lon="-106.31980263">
				<ele>2314.5</ele>
				<time>2021-04-17T19:45:55Z</time>
			</trkpt>
			<trkpt lat="35.00070761" lon="-106.31976345">
				<ele>2313.3</ele>
				<time>2021-04-17T19:45:59Z</time>
			</trkpt>
			<trkpt lat="35.00070945" lon="-106.31971009">
				<ele>2313.6</ele>
				<time>2021-04-17T19:46:05Z</time>
			</trkpt>
			<trkpt lat="35.00070699" lon="-106.31966061">
				<ele>2313.6</ele>
				<time>2021-04-17T19:46:08Z</time>
			</trkpt>
			<trkpt lat="35.00071148" lon="-106.31961101">
				<ele>2313.6</ele>
				<time>2021-04-17T19:46:12Z</time>
			</trkpt>
			<trkpt lat="35.00072342" lon="-106.31956511">
				<ele>2313</ele>
				<time>2021-04-17T19:46:16Z</time>
			</trkpt>
			<trkpt lat="35.00073287" lon="-106.31951618">
				<ele>2312.1</ele>
				<time>2021-04-17T19:46:21Z</time>
			</trkpt>
			<trkpt lat="35.00073483" lon="-106.31946037">
				<ele>2313.1</ele>
				<time>2021-04-17T19:46:25Z</time>
			</trkpt>
			<trkpt lat="35.00073957" lon="-106.3194123">
				<ele>2314.2</ele>
				<time>2021-04-17T19:46:29Z</time>
			</trkpt>
			<trkpt lat="35.00074702" lon="-106.31936741">
				<ele>2314.4</ele>
				<time>2021-04-17T19:46:33Z</time>
			</trkpt>
			<trkpt lat="35.00073879" lon="-106.31931566">
				<ele>2313</ele>
				<time>2021-04-17T19:46:37Z</time>
			</trkpt>
			<trkpt lat="35.00074675" lon="-106.3192713">
				<ele>2314</ele>
				<time>2021-04-17T19:46:41Z</time>
			</trkpt>
			<trkpt lat="35.00077206" lon="-106.3192237">
				<ele>2313.9</ele>
				<time>2021-04-17T19:46:46Z</time>
			</trkpt>
			<trkpt lat="35.00078507" lon="-106.31917299">
				<ele>2313.2</ele>
				<time>2021-04-17T19:46:51Z</time>
			</trkpt>
			<trkpt lat="35.00079965" lon="-106.3191235">
				<ele>2311.9</ele>
				<time>2021-04-17T19:46:56Z</time>
			</trkpt>
			<trkpt lat="35.00082728" lon="-106.31907663">
				<ele>2310.5</ele>
				<time>2021-04-17T19:46:59Z</time>
			</trkpt>
			<trkpt lat="35.0008437" lon="-106.31903754">
				<ele>2311.5</ele>
				<time>2021-04-17T19:47:02Z</time>
			</trkpt>
			<trkpt lat="35.00086205" lon="-106.31898937">
				<ele>2311.5</ele>
				<time>2021-04-17T19:47:07Z</time>
			</trkpt>
			<trkpt lat="35.00088482" lon="-106.31894916">
				<ele>2311.9</ele>
				<time>2021-04-17T19:47:11Z</time>
			</trkpt>
			<trkpt lat="35.00091394" lon="-106.3189088">
				<ele>2312</ele>
				<time>2021-04-17T19:47:15Z</time>
			</trkpt>
			<trkpt lat="35.00093327" lon="-106.31887169">
				<ele>2310</ele>
				<time>2021-04-17T19:47:18Z</time>
			</trkpt>
			<trkpt lat="35.00096268" lon="-106.31883526">
				<ele>2308.9</ele>
				<time>2021-04-17T19:47:22Z</time>
			</trkpt>
			<trkpt lat="35.00099967" lon="-106.3188061">
				<ele>2310.1</ele>
				<time>2021-04-17T19:47:27Z</time>
			</trkpt>
			<trkpt lat="35.00103428" lon="-106.31877904">
				<ele>2310</ele>
				<time>2021-04-17T19:47:32Z</time>
			</trkpt>
			<trkpt lat="35.00106051" lon="-106.31874715">
				<ele>2309</ele>
				<time>2021-04-17T19:47:35Z</time>
			</trkpt>
			<trkpt lat="35.00108634" lon="-106.31870944">
				<ele>2306.3</ele>
				<time>2021-04-17T19:47:38Z</time>
			</trkpt>
			<trkpt lat="35.00111272" lon="-106.3186703">
				<ele>2306.3</ele>
				<time>2021-04-17T19:47:41Z</time>
			</trkpt>
			<trkpt lat="35.0011356" lon="-106.31862667">
				<ele>2306.8</ele>
				<time>2021-04-17T19:47:45Z</time>
			</trkpt>
			<trkpt lat="35.00116076" lon="-106.31859069">
				<ele>2307</ele>
				<time>2021-04-17T19:47:49Z</time>
			</trkpt>
			<trkpt lat="35.00118837" lon="-106.31855731">
				<ele>2307.6</ele>
				<time>2021-04-17T19:47:53Z</time>
			</trkpt>
			<trkpt lat="35.0012088" lon="-106.31850549">
				<ele>2306.4</ele>
				<time>2021-04-17T19:47:57Z</time>
			</trkpt>
			<trkpt lat="35.00123116" lon="-106.31846134">
				<ele>2307.5</ele>
				<time>2021-04-17T19:48:01Z</time>
			</trkpt>
			<trkpt lat="35.00125812" lon="-106.31843188">
				<ele>2308.4</ele>
				<time>2021-04-17T19:48:05Z</time>
			</trkpt>
			<trkpt lat="35.00129003" lon="-106.3184045">
				<ele>2306.8</ele>
				<time>2021-04-17T19:48:09Z</time>
			</trkpt>
			<trkpt lat="35.00132205" lon="-106.31837059">
				<ele>2307.4</ele>
				<time>2021-04-17T19:48:13Z</time>
			</trkpt>
			<trkpt lat="35.00134154" lon="-106.31832981">
				<ele>2306.3</ele>
				<time>2021-04-17T19:48:16Z</time>
			</trkpt>
			<trkpt lat="35.00136136" lon="-106.31828883">
				<ele>2307.9</ele>
				<time>2021-04-17T19:48:20Z</time>
			</trkpt>
			<trkpt lat="35.00138665" lon="-106.31825623">
				<ele>2307.5</ele>
				<time>2021-04-17T19:48:23Z</time>
			</trkpt>
			<trkpt lat="35.00140392" lon="-106.31821413">
				<ele>2306.6</ele>
				<time>2021-04-17T19:48:27Z</time>
			</trkpt>
			<trkpt lat="35.00141488" lon="-106.31816359">
				<ele>2306.5</ele>
				<time>2021-04-17T19:48:31Z</time>
			</trkpt>
			<trkpt lat="35.00142189" lon="-106.31810928">
				<ele>2306.8</ele>
				<time>2021-04-17T19:48:35Z</time>
			</trkpt>
			<trkpt lat="35.00144078" lon="-106.31806626">
				<ele>2306.9</ele>
				<time>2021-04-17T19:48:38Z</time>
			</trkpt>
			<trkpt lat="35.001465" lon="-106.31802781">
				<ele>2308.3</ele>
				<time>2021-04-17T19:48:42Z</time>
			</trkpt>
			<trkpt lat="35.00148483" lon="-106.31797669">
				<ele>2308.2</ele>
				<time>2021-04-17T19:48:46Z</time>
			</trkpt>
			<trkpt lat="35.00150777" lon="-106.3179314">
				<ele>2309.1</ele>
				<time>2021-04-17T19:48:50Z</time>
			</trkpt>
			<trkpt lat="35.00153914" lon="-106.31790285">
				<ele>2311.2</ele>
				<time>2021-04-17T19:48:54Z</time>
			</trkpt>
			<trkpt lat="35.00155162" lon="-106.31785552">
				<ele>2312.2</ele>
				<time>2021-04-17T19:48:58Z</time>
			</trkpt>
			<trkpt lat="35.00157228" lon="-106.31781481">
				<ele>2311.9</ele>
				<time>2021-04-17T19:49:02Z</time>
			</trkpt>
			<trkpt lat="35.00158478" lon="-106.31777301">
				<ele>2308.6</ele>
				<time>2021-04-17T19:49:05Z</time>
			</trkpt>
			<trkpt lat="35.0016097" lon="-106.31773128">
				<ele>2306.3</ele>
				<time>2021-04-17T19:49:09Z</time>
			</trkpt>
			<trkpt lat="35.00164211" lon="-106.31771065">
				<ele>2299.8</ele>
				<time>2021-04-17T19:49:34Z</time>
			</trkpt>
			<trkpt lat="35.00167378" lon="-106.31774171">
				<ele>2297.7</ele>
				<time>2021-04-17T19:49:41Z</time>
			</trkpt>
			<trkpt lat="35.00170044" lon="-106.31778208">
				<ele>2298.3</ele>
				<time>2021-04-17T19:49:48Z</time>
			</trkpt>
			<trkpt lat="35.00172028" lon="-106.31782086">
				<ele>2300.2</ele>
				<time>2021-04-17T19:49:53Z</time>
			</trkpt>
			<trkpt lat="35.00174661" lon="-106.31785543">
				<ele>2299.7</ele>
				<time>2021-04-17T19:49:57Z</time>
			</trkpt>
			<trkpt lat="35.00177307" lon="-106.31789229">
				<ele>2301.5</ele>
				<time>2021-04-17T19:50:01Z</time>
			</trkpt>
			<trkpt lat="35.00181237" lon="-106.31792155">
				<ele>2302.6</ele>
				<time>2021-04-17T19:50:05Z</time>
			</trkpt>
			<trkpt lat="35.00185058" lon="-106.31793481">
				<ele>2302.5</ele>
				<time>2021-04-17T19:50:08Z</time>
			</trkpt>
			<trkpt lat="35.00188811" lon="-106.31795192">
				<ele>2303.9</ele>
				<time>2021-04-17T19:50:12Z</time>
			</trkpt>
			<trkpt lat="35.00192028" lon="-106.31797802">
				<ele>2306.2</ele>
				<time>2021-04-17T19:50:16Z</time>
			</trkpt>
			<trkpt lat="35.0019557" lon="-106.31800893">
				<ele>2305.6</ele>
				<time>2021-04-17T19:50:20Z</time>
			</trkpt>
			<trkpt lat="35.00198981" lon="-106.31804254">
				<ele>2306.3</ele>
				<time>2021-04-17T19:50:25Z</time>
			</trkpt>
			<trkpt lat="35.00202156" lon="-106.31806804">
				<ele>2307.5</ele>
				<time>2021-04-17T19:50:29Z</time>
			</trkpt>
			<trkpt lat="35.00205963" lon="-106.31808542">
				<ele>2307</ele>
				<time>2021-04-17T19:50:33Z</time>
			</trkpt>
			<trkpt lat="35.00209122" lon="-106.31812572">
				<ele>2309.2</ele>
				<time>2021-04-17T19:50:38Z</time>
			</trkpt>
			<trkpt lat="35.00213332" lon="-106.318144">
				<ele>2308</ele>
				<time>2021-04-17T19:50:42Z</time>
			</trkpt>
			<trkpt lat="35.00217712" lon="-106.31814159">
				<ele>2307.4</ele>
				<time>2021-04-17T19:50:45Z</time>
			</trkpt>
			<trkpt lat="35.00221624" lon="-106.31815144">
				<ele>2308.4</ele>
				<time>2021-04-17T19:50:48Z</time>
			</trkpt>
			<trkpt lat="35.00226251" lon="-106.31815289">
				<ele>2308.5</ele>
				<time>2021-04-17T19:50:52Z</time>
			</trkpt>
			<trkpt lat="35.00229993" lon="-106.31813658">
				<ele>2308.5</ele>
				<time>2021-04-17T19:50:55Z</time>
			</trkpt>
			<trkpt lat="35.00233842" lon="-106.31812115">
				<ele>2308.5</ele>
				<time>2021-04-17T19:50:58Z</time>
			</trkpt>
			<trkpt lat="35.00237727" lon="-106.31810825">
				<ele>2308.7</ele>
				<time>2021-04-17T19:51:01Z</time>
			</trkpt>
			<trkpt lat="35.00242232" lon="-106.3181039">
				<ele>2308.1</ele>
				<time>2021-04-17T19:51:04Z</time>
			</trkpt>
			<trkpt lat="35.00246448" lon="-106.31808618">
				<ele>2308.7</ele>
				<time>2021-04-17T19:51:07Z</time>
			</trkpt>
			<trkpt lat="35.00250416" lon="-106.31807139">
				<ele>2309.8</ele>
				<time>2021-04-17T19:51:10Z</time>
			</trkpt>
			<trkpt lat="35.00254298" lon="-106.31806029">
				<ele>2310.5</ele>
				<time>2021-04-17T19:51:13Z</time>
			</trkpt>
			<trkpt lat="35.00258107" lon="-106.31804164">
				<ele>2309.9</ele>
				<time>2021-04-17T19:51:17Z</time>
			</trkpt>
			<trkpt lat="35.00261698" lon="-106.31803404">
				<ele>2310.1</ele>
				<time>2021-04-17T19:51:21Z</time>
			</trkpt>
			<trkpt lat="35.00265484" lon="-106.31801776">
				<ele>2309.7</ele>
				<time>2021-04-17T19:51:25Z</time>
			</trkpt>
			<trkpt lat="35.00268997" lon="-106.31800261">
				<ele>2309.5</ele>
				<time>2021-04-17T19:51:29Z</time>
			</trkpt>
			<trkpt lat="35.00272548" lon="-106.31798757">
				<ele>2309.2</ele>
				<time>2021-04-17T19:51:34Z</time>
			</trkpt>
			<trkpt lat="35.00276742" lon="-106.31798695">
				<ele>2309</ele>
				<time>2021-04-17T19:51:39Z</time>
			</trkpt>
			<trkpt lat="35.00280907" lon="-106.31798967">
				<ele>2309.2</ele>
				<time>2021-04-17T19:51:44Z</time>
			</trkpt>
			<trkpt lat="35.00284468" lon="-106.31799712">
				<ele>2308.7</ele>
				<time>2021-04-17T19:51:47Z</time>
			</trkpt>
			<trkpt lat="35.0028875" lon="-106.3180001">
				<ele>2309.2</ele>
				<time>2021-04-17T19:51:51Z</time>
			</trkpt>
			<trkpt lat="35.00293098" lon="-106.31801833">
				<ele>2310.8</ele>
				<time>2021-04-17T19:51:56Z</time>
			</trkpt>
			<trkpt lat="35.00297107" lon="-106.31803152">
				<ele>2310.6</ele>
				<time>2021-04-17T19:52:00Z</time>
			</trkpt>
			<trkpt lat="35.00301448" lon="-106.31804407">
				<ele>2312.7</ele>
				<time>2021-04-17T19:52:05Z</time>
			</trkpt>
			<trkpt lat="35.00305976" lon="-106.31804709">
				<ele>2312.9</ele>
				<time>2021-04-17T19:52:09Z</time>
			</trkpt>
			<trkpt lat="35.00309908" lon="-106.31804955">
				<ele>2312.9</ele>
				<time>2021-04-17T19:52:13Z</time>
			</trkpt>
			<trkpt lat="35.00314431" lon="-106.31804844">
				<ele>2312.7</ele>
				<time>2021-04-17T19:52:17Z</time>
			</trkpt>
			<trkpt lat="35.00318541" lon="-106.31805566">
				<ele>2313.2</ele>
				<time>2021-04-17T19:52:21Z</time>
			</trkpt>
			<trkpt lat="35.00323048" lon="-106.31806146">
				<ele>2313.4</ele>
				<time>2021-04-17T19:52:25Z</time>
			</trkpt>
			<trkpt lat="35.00327527" lon="-106.31806076">
				<ele>2313.2</ele>
				<time>2021-04-17T19:52:28Z</time>
			</trkpt>
			<trkpt lat="35.00331765" lon="-106.31806805">
				<ele>2312.9</ele>
				<time>2021-04-17T19:52:31Z</time>
			</trkpt>
			<trkpt lat="35.00335919" lon="-106.3180711">
				<ele>2312</ele>
				<time>2021-04-17T19:52:34Z</time>
			</trkpt>
			<trkpt lat="35.00339594" lon="-106.31806531">
				<ele>2312.5</ele>
				<time>2021-04-17T19:52:37Z</time>
			</trkpt>
			<trkpt lat="35.00343583" lon="-106.31804887">
				<ele>2311.5</ele>
				<time>2021-04-17T19:52:40Z</time>
			</trkpt>
			<trkpt lat="35.00347402" lon="-106.31803961">
				<ele>2310.9</ele>
				<time>2021-04-17T19:52:43Z</time>
			</trkpt>
			<trkpt lat="35.003514" lon="-106.3180308">
				<ele>2310.5</ele>
				<time>2021-04-17T19:52:46Z</time>
			</trkpt>
			<trkpt lat="35.00356088" lon="-106.31802012">
				<ele>2311.1</ele>
				<time>2021-04-17T19:52:50Z</time>
			</trkpt>
			<trkpt lat="35.00359725" lon="-106.31801396">
				<ele>2310.4</ele>
				<time>2021-04-17T19:52:53Z</time>
			</trkpt>
			<trkpt lat="35.00364113" lon="-106.31801991">
				<ele>2311.5</ele>
				<time>2021-04-17T19:52:57Z</time>
			</trkpt>
			<trkpt lat="35.00368146" lon="-106.31800654">
				<ele>2311.5</ele>
				<time>2021-04-17T19:53:02Z</time>
			</trkpt>
			<trkpt lat="35.00371746" lon="-106.31799219">
				<ele>2312</ele>
				<time>2021-04-17T19:53:06Z</time>
			</trkpt>
			<trkpt lat="35.00375254" lon="-106.31796075">
				<ele>2313</ele>
				<time>2021-04-17T19:53:11Z</time>
			</trkpt>
			<trkpt lat="35.00378558" lon="-106.31793592">
				<ele>2313.9</ele>
				<time>2021-04-17T19:53:15Z</time>
			</trkpt>
			<trkpt lat="35.00381779" lon="-106.31790422">
				<ele>2313.6</ele>
				<time>2021-04-17T19:53:19Z</time>
			</trkpt>
			<trkpt lat="35.00385222" lon="-106.31786718">
				<ele>2313.4</ele>
				<time>2021-04-17T19:53:23Z</time>
			</trkpt>
			<trkpt lat="35.0038856" lon="-106.3178442">
				<ele>2314.6</ele>
				<time>2021-04-17T19:53:27Z</time>
			</trkpt>
			<trkpt lat="35.00391144" lon="-106.31781348">
				<ele>2313.1</ele>
				<time>2021-04-17T19:53:30Z</time>
			</trkpt>
			<trkpt lat="35.0039349" lon="-106.31776974">
				<ele>2309.8</ele>
				<time>2021-04-17T19:53:34Z</time>
			</trkpt>
			<trkpt lat="35.00396046" lon="-106.31773031">
				<ele>2308.1</ele>
				<time>2021-04-17T19:53:37Z</time>
			</trkpt>
			<trkpt lat="35.00399003" lon="-106.31770208">
				<ele>2308.5</ele>
				<time>2021-04-17T19:53:40Z</time>
			</trkpt>
			<trkpt lat="35.00402653" lon="-106.31768134">
				<ele>2309.4</ele>
				<time>2021-04-17T19:53:45Z</time>
			</trkpt>
			<trkpt lat="35.00406533" lon="-106.31765455">
				<ele>2311.4</ele>
				<time>2021-04-17T19:53:49Z</time>
			</trkpt>
			<trkpt lat="35.00410243" lon="-106.31762276">
				<ele>2311.6</ele>
				<time>2021-04-17T19:53:53Z</time>
			</trkpt>
			<trkpt lat="35.00413355" lon="-106.31759702">
				<ele>2311.1</ele>
				<time>2021-04-17T19:53:56Z</time>
			</trkpt>
			<trkpt lat="35.00416454" lon="-106.31757413">
				<ele>2311.9</ele>
				<time>2021-04-17T19:53:59Z</time>
			</trkpt>
			<trkpt lat="35.00419351" lon="-106.31754448">
				<ele>2311.5</ele>
				<time>2021-04-17T19:54:02Z</time>
			</trkpt>
			<trkpt lat="35.00421937" lon="-106.31751142">
				<ele>2310.5</ele>
				<time>2021-04-17T19:54:05Z</time>
			</trkpt>
			<trkpt lat="35.00424647" lon="-106.31747383">
				<ele>2311.1</ele>
				<time>2021-04-17T19:54:09Z</time>
			</trkpt>
			<trkpt lat="35.0042784" lon="-106.31744627">
				<ele>2311.4</ele>
				<time>2021-04-17T19:54:12Z</time>
			</trkpt>
			<trkpt lat="35.00431153" lon="-106.31742003">
				<ele>2311.2</ele>
				<time>2021-04-17T19:54:15Z</time>
			</trkpt>
			<trkpt lat="35.00434829" lon="-106.31739082">
				<ele>2310.9</ele>
				<time>2021-04-17T19:54:19Z</time>
			</trkpt>
			<trkpt lat="35.00438641" lon="-106.3173656">
				<ele>2310.7</ele>
				<time>2021-04-17T19:54:23Z</time>
			</trkpt>
			<trkpt lat="35.00442716" lon="-106.31734147">
				<ele>2310.7</ele>
				<time>2021-04-17T19:54:27Z</time>
			</trkpt>
			<trkpt lat="35.00445725" lon="-106.31731515">
				<ele>2310.8</ele>
				<time>2021-04-17T19:54:30Z</time>
			</trkpt>
			<trkpt lat="35.00449627" lon="-106.31728925">
				<ele>2309.8</ele>
				<time>2021-04-17T19:54:34Z</time>
			</trkpt>
			<trkpt lat="35.00452916" lon="-106.31725036">
				<ele>2309.9</ele>
				<time>2021-04-17T19:54:38Z</time>
			</trkpt>
			<trkpt lat="35.00455826" lon="-106.31721102">
				<ele>2309.1</ele>
				<time>2021-04-17T19:54:42Z</time>
			</trkpt>
			<trkpt lat="35.00460036" lon="-106.31719007">
				<ele>2309.6</ele>
				<time>2021-04-17T19:54:46Z</time>
			</trkpt>
			<trkpt lat="35.00463985" lon="-106.31717397">
				<ele>2309.2</ele>
				<time>2021-04-17T19:54:50Z</time>
			</trkpt>
			<trkpt lat="35.00467588" lon="-106.31715046">
				<ele>2309.4</ele>
				<time>2021-04-17T19:54:54Z</time>
			</trkpt>
			<trkpt lat="35.00471313" lon="-106.31712446">
				<ele>2308.9</ele>
				<time>2021-04-17T19:54:58Z</time>
			</trkpt>
			<trkpt lat="35.00474985" lon="-106.31710241">
				<ele>2307.7</ele>
				<time>2021-04-17T19:55:02Z</time>
			</trkpt>
			<trkpt lat="35.00478585" lon="-106.31707967">
				<ele>2307.6</ele>
				<time>2021-04-17T19:55:06Z</time>
			</trkpt>
			<trkpt lat="35.00482563" lon="-106.31708528">
				<ele>2309.9</ele>
				<time>2021-04-17T19:55:12Z</time>
			</trkpt>
			<trkpt lat="35.00487163" lon="-106.31709417">
				<ele>2311</ele>
				<time>2021-04-17T19:55:18Z</time>
			</trkpt>
			<trkpt lat="35.00491197" lon="-106.31709696">
				<ele>2311.2</ele>
				<time>2021-04-17T19:55:22Z</time>
			</trkpt>
			<trkpt lat="35.00494734" lon="-106.31711333">
				<ele>2311.8</ele>
				<time>2021-04-17T19:55:26Z</time>
			</trkpt>
			<trkpt lat="35.00498804" lon="-106.31712551">
				<ele>2312.3</ele>
				<time>2021-04-17T19:55:31Z</time>
			</trkpt>
			<trkpt lat="35.00503106" lon="-106.31713247">
				<ele>2312.1</ele>
				<time>2021-04-17T19:55:35Z</time>
			</trkpt>
			<trkpt lat="35.00506823" lon="-106.31712849">
				<ele>2311.7</ele>
				<time>2021-04-17T19:55:38Z</time>
			</trkpt>
			<trkpt lat="35.00510515" lon="-106.31712335">
				<ele>2311.2</ele>
				<time>2021-04-17T19:55:41Z</time>
			</trkpt>
			<trkpt lat="35.00514074" lon="-106.3171161">
				<ele>2311.1</ele>
				<time>2021-04-17T19:55:44Z</time>
			</trkpt>
			<trkpt lat="35.00518193" lon="-106.31709864">
				<ele>2311</ele>
				<time>2021-04-17T19:55:48Z</time>
			</trkpt>
			<trkpt lat="35.00522675" lon="-106.31707916">
				<ele>2310.3</ele>
				<time>2021-04-17T19:55:52Z</time>
			</trkpt>
			<trkpt lat="35.0052684" lon="-106.31707253">
				<ele>2311.2</ele>
				<time>2021-04-17T19:55:56Z</time>
			</trkpt>
			<trkpt lat="35.00529914" lon="-106.31703076">
				<ele>2308.8</ele>
				<time>2021-04-17T19:56:06Z</time>
			</trkpt>
			<trkpt lat="35.00534179" lon="-106.31701786">
				<ele>2308.4</ele>
				<time>2021-04-17T19:56:10Z</time>
			</trkpt>
			<trkpt lat="35.00538799" lon="-106.31701593">
				<ele>2308.9</ele>
				<time>2021-04-17T19:56:14Z</time>
			</trkpt>
			<trkpt lat="35.00542649" lon="-106.31700718">
				<ele>2309.5</ele>
				<time>2021-04-17T19:56:18Z</time>
			</trkpt>
			<trkpt lat="35.00546706" lon="-106.31700341">
				<ele>2309.2</ele>
				<time>2021-04-17T19:56:22Z</time>
			</trkpt>
			<trkpt lat="35.00550477" lon="-106.31700411">
				<ele>2307.7</ele>
				<time>2021-04-17T19:56:26Z</time>
			</trkpt>
			<trkpt lat="35.0055531" lon="-106.31700616">
				<ele>2307.8</ele>
				<time>2021-04-17T19:56:30Z</time>
			</trkpt>
			<trkpt lat="35.00558884" lon="-106.31699848">
				<ele>2308.8</ele>
				<time>2021-04-17T19:56:33Z</time>
			</trkpt>
			<trkpt lat="35.0056339" lon="-106.31700175">
				<ele>2308.8</ele>
				<time>2021-04-17T19:56:37Z</time>
			</trkpt>
			<trkpt lat="35.00567448" lon="-106.31700216">
				<ele>2308.1</ele>
				<time>2021-04-17T19:56:41Z</time>
			</trkpt>
			<trkpt lat="35.00571373" lon="-106.31700386">
				<ele>2307.7</ele>
				<time>2021-04-17T19:56:45Z</time>
			</trkpt>
			<trkpt lat="35.00575574" lon="-106.3170068">
				<ele>2308.2</ele>
				<time>2021-04-17T19:56:49Z</time>
			</trkpt>
			<trkpt lat="35.00579408" lon="-106.31701006">
				<ele>2308.6</ele>
				<time>2021-04-17T19:56:56Z</time>
			</trkpt>
			<trkpt lat="35.00583089" lon="-106.31701316">
				<ele>2307.9</ele>
				<time>2021-04-17T19:57:00Z</time>
			</trkpt>
			<trkpt lat="35.00587289" lon="-106.31702051">
				<ele>2308.5</ele>
				<time>2021-04-17T19:57:06Z</time>
			</trkpt>
			<trkpt lat="35.00591273" lon="-106.31703029">
				<ele>2311.1</ele>
				<time>2021-04-17T19:57:12Z</time>
			</trkpt>
			<trkpt lat="35.00595243" lon="-106.31703525">
				<ele>2311.3</ele>
				<time>2021-04-17T19:57:16Z</time>
			</trkpt>
			<trkpt lat="35.00598255" lon="-106.31706156">
				<ele>2313.9</ele>
				<time>2021-04-17T19:57:20Z</time>
			</trkpt>
			<trkpt lat="35.00602171" lon="-106.31707885">
				<ele>2316.1</ele>
				<time>2021-04-17T19:57:25Z</time>
			</trkpt>
			<trkpt lat="35.00605878" lon="-106.31709011">
				<ele>2313.9</ele>
				<time>2021-04-17T19:57:29Z</time>
			</trkpt>
			<trkpt lat="35.00609605" lon="-106.31710296">
				<ele>2312.5</ele>
				<time>2021-04-17T19:57:33Z</time>
			</trkpt>
			<trkpt lat="35.00613227" lon="-106.31711763">
				<ele>2311.6</ele>
				<time>2021-04-17T19:57:36Z</time>
			</trkpt>
			<trkpt lat="35.00616649" lon="-106.31714737">
				<ele>2312.1</ele>
				<time>2021-04-17T19:57:40Z</time>
			</trkpt>
			<trkpt lat="35.00620575" lon="-106.31716252">
				<ele>2309.8</ele>
				<time>2021-04-17T19:57:46Z</time>
			</trkpt>
			<trkpt lat="35.00623087" lon="-106.31720469">
				<ele>2312.1</ele>
				<time>2021-04-17T19:57:52Z</time>
			</trkpt>
			<trkpt lat="35.006253" lon="-106.31724216">
				<ele>2311.4</ele>
				<time>2021-04-17T19:57:55Z</time>
			</trkpt>
			<trkpt lat="35.00627255" lon="-106.31729444">
				<ele>2310.8</ele>
				<time>2021-04-17T19:57:59Z</time>
			</trkpt>
			<trkpt lat="35.00630302" lon="-106.31732881">
				<ele>2310.5</ele>
				<time>2021-04-17T19:58:03Z</time>
			</trkpt>
			<trkpt lat="35.00633397" lon="-106.31736113">
				<ele>2311.2</ele>
				<time>2021-04-17T19:58:07Z</time>
			</trkpt>
			<trkpt lat="35.00636351" lon="-106.31738881">
				<ele>2312.1</ele>
				<time>2021-04-17T19:58:10Z</time>
			</trkpt>
			<trkpt lat="35.00640516" lon="-106.3174138">
				<ele>2311.4</ele>
				<time>2021-04-17T19:58:14Z</time>
			</trkpt>
			<trkpt lat="35.00644036" lon="-106.31743591">
				<ele>2311</ele>
				<time>2021-04-17T19:58:17Z</time>
			</trkpt>
			<trkpt lat="35.00648234" lon="-106.3174568">
				<ele>2309.9</ele>
				<time>2021-04-17T19:58:21Z</time>
			</trkpt>
			<trkpt lat="35.00651659" lon="-106.31747863">
				<ele>2310.5</ele>
				<time>2021-04-17T19:58:25Z</time>
			</trkpt>
			<trkpt lat="35.00655454" lon="-106.3175005">
				<ele>2309.5</ele>
				<time>2021-04-17T19:58:29Z</time>
			</trkpt>
			<trkpt lat="35.00656404" lon="-106.31754952">
				<ele>2309.8</ele>
				<time>2021-04-17T19:58:35Z</time>
			</trkpt>
			<trkpt lat="35.00660919" lon="-106.31757466">
				<ele>2308</ele>
				<time>2021-04-17T19:58:40Z</time>
			</trkpt>
			<trkpt lat="35.00664433" lon="-106.31759083">
				<ele>2307.1</ele>
				<time>2021-04-17T19:58:43Z</time>
			</trkpt>
			<trkpt lat="35.00668958" lon="-106.31760311">
				<ele>2305.6</ele>
				<time>2021-04-17T19:58:47Z</time>
			</trkpt>
			<trkpt lat="35.00673513" lon="-106.31760741">
				<ele>2304.7</ele>
				<time>2021-04-17T19:58:51Z</time>
			</trkpt>
			<trkpt lat="35.00676733" lon="-106.3176359">
				<ele>2304.4</ele>
				<time>2021-04-17T19:58:55Z</time>
			</trkpt>
			<trkpt lat="35.00678431" lon="-106.31767961">
				<ele>2303.7</ele>
				<time>2021-04-17T19:58:59Z</time>
			</trkpt>
			<trkpt lat="35.0067967" lon="-106.31772514">
				<ele>2303.2</ele>
				<time>2021-04-17T19:59:03Z</time>
			</trkpt>
			<trkpt lat="35.0068043" lon="-106.31777146">
				<ele>2302.9</ele>
				<time>2021-04-17T19:59:07Z</time>
			</trkpt>
			<trkpt lat="35.00680808" lon="-106.31782049">
				<ele>2302.8</ele>
				<time>2021-04-17T19:59:11Z</time>
			</trkpt>
			<trkpt lat="35.00682646" lon="-106.31787167">
				<ele>2302.5</ele>
				<time>2021-04-17T19:59:16Z</time>
			</trkpt>
			<trkpt lat="35.00685323" lon="-106.31790481">
				<ele>2301.7</ele>
				<time>2021-04-17T19:59:20Z</time>
			</trkpt>
			<trkpt lat="35.0068852" lon="-106.31793572">
				<ele>2301.1</ele>
				<time>2021-04-17T19:59:24Z</time>
			</trkpt>
			<trkpt lat="35.00690958" lon="-106.31797191">
				<ele>2300.5</ele>
				<time>2021-04-17T19:59:28Z</time>
			</trkpt>
			<trkpt lat="35.00694867" lon="-106.31799357">
				<ele>2300.6</ele>
				<time>2021-04-17T19:59:32Z</time>
			</trkpt>
			<trkpt lat="35.0069847" lon="-106.31800912">
				<ele>2300.5</ele>
				<time>2021-04-17T19:59:36Z</time>
			</trkpt>
			<trkpt lat="35.00701621" lon="-106.31803352">
				<ele>2299.5</ele>
				<time>2021-04-17T19:59:40Z</time>
			</trkpt>
			<trkpt lat="35.00705334" lon="-106.31806113">
				<ele>2300.5</ele>
				<time>2021-04-17T19:59:45Z</time>
			</trkpt>
			<trkpt lat="35.00708161" lon="-106.31809133">
				<ele>2301.7</ele>
				<time>2021-04-17T19:59:50Z</time>
			</trkpt>
			<trkpt lat="35.00711072" lon="-106.31811802">
				<ele>2303.1</ele>
				<time>2021-04-17T19:59:55Z</time>
			</trkpt>
			<trkpt lat="35.00713272" lon="-106.31815687">
				<ele>2304.8</ele>
				<time>2021-04-17T20:00:01Z</time>
			</trkpt>
			<trkpt lat="35.00714417" lon="-106.31819917">
				<ele>2304.4</ele>
				<time>2021-04-17T20:00:06Z</time>
			</trkpt>
			<trkpt lat="35.00716344" lon="-106.31823649">
				<ele>2301</ele>
				<time>2021-04-17T20:00:12Z</time>
			</trkpt>
			<trkpt lat="35.0071863" lon="-106.31827643">
				<ele>2299.6</ele>
				<time>2021-04-17T20:00:17Z</time>
			</trkpt>
			<trkpt lat="35.00721679" lon="-106.3183112">
				<ele>2298.6</ele>
				<time>2021-04-17T20:00:21Z</time>
			</trkpt>
			<trkpt lat="35.00724485" lon="-106.3183404">
				<ele>2298.3</ele>
				<time>2021-04-17T20:00:25Z</time>
			</trkpt>
			<trkpt lat="35.00728463" lon="-106.31836568">
				<ele>2297.8</ele>
				<time>2021-04-17T20:00:29Z</time>
			</trkpt>
			<trkpt lat="35.00731816" lon="-106.3183821">
				<ele>2296.9</ele>
				<time>2021-04-17T20:00:32Z</time>
			</trkpt>
			<trkpt lat="35.00735017" lon="-106.3184134">
				<ele>2297.1</ele>
				<time>2021-04-17T20:00:36Z</time>
			</trkpt>
			<trkpt lat="35.00738319" lon="-106.31845188">
				<ele>2296.8</ele>
				<time>2021-04-17T20:00:40Z</time>
			</trkpt>
			<trkpt lat="35.00742072" lon="-106.3184837">
				<ele>2298</ele>
				<time>2021-04-17T20:00:44Z</time>
			</trkpt>
			<trkpt lat="35.00744833" lon="-106.31852031">
				<ele>2298.5</ele>
				<time>2021-04-17T20:00:48Z</time>
			</trkpt>
			<trkpt lat="35.00748137" lon="-106.31854269">
				<ele>2298.7</ele>
				<time>2021-04-17T20:00:52Z</time>
			</trkpt>
			<trkpt lat="35.0075152" lon="-106.31856638">
				<ele>2298.1</ele>
				<time>2021-04-17T20:00:56Z</time>
			</trkpt>
			<trkpt lat="35.0075561" lon="-106.31858962">
				<ele>2298.7</ele>
				<time>2021-04-17T20:01:00Z</time>
			</trkpt>
			<trkpt lat="35.00759964" lon="-106.31860966">
				<ele>2299.3</ele>
				<time>2021-04-17T20:01:04Z</time>
			</trkpt>
			<trkpt lat="35.00763591" lon="-106.31863606">
				<ele>2299.8</ele>
				<time>2021-04-17T20:01:08Z</time>
			</trkpt>
			<trkpt lat="35.00767222" lon="-106.3186648">
				<ele>2299.7</ele>
				<time>2021-04-17T20:01:12Z</time>
			</trkpt>
			<trkpt lat="35.00771583" lon="-106.31867854">
				<ele>2299.1</ele>
				<time>2021-04-17T20:01:16Z</time>
			</trkpt>
			<trkpt lat="35.00775153" lon="-106.31869757">
				<ele>2300</ele>
				<time>2021-04-17T20:01:20Z</time>
			</trkpt>
			<trkpt lat="35.00778698" lon="-106.31871995">
				<ele>2299.8</ele>
				<time>2021-04-17T20:01:25Z</time>
			</trkpt>
			<trkpt lat="35.00783264" lon="-106.31871386">
				<ele>2299.6</ele>
				<time>2021-04-17T20:02:17Z</time>
			</trkpt>
			<trkpt lat="35.00786952" lon="-106.31873121">
				<ele>2299.5</ele>
				<time>2021-04-17T20:02:20Z</time>
			</trkpt>
			<trkpt lat="35.00790293" lon="-106.31874809">
				<ele>2298.3</ele>
				<time>2021-04-17T20:02:23Z</time>
			</trkpt>
			<trkpt lat="35.00793968" lon="-106.31877236">
				<ele>2297.5</ele>
				<time>2021-04-17T20:02:27Z</time>
			</trkpt>
			<trkpt lat="35.00797095" lon="-106.3187989">
				<ele>2297</ele>
				<time>2021-04-17T20:02:30Z</time>
			</trkpt>
			<trkpt lat="35.0080055" lon="-106.31883284">
				<ele>2297.2</ele>
				<time>2021-04-17T20:02:34Z</time>
			</trkpt>
			<trkpt lat="35.0080297" lon="-106.31887529">
				<ele>2298.5</ele>
				<time>2021-04-17T20:02:37Z</time>
			</trkpt>
			<trkpt lat="35.00805585" lon="-106.3189118">
				<ele>2297.7</ele>
				<time>2021-04-17T20:02:40Z</time>
			</trkpt>
			<trkpt lat="35.00809054" lon="-106.31894734">
				<ele>2298.2</ele>
				<time>2021-04-17T20:02:44Z</time>
			</trkpt>
			<trkpt lat="35.00812567" lon="-106.3189655">
				<ele>2296.3</ele>
				<time>2021-04-17T20:02:48Z</time>
			</trkpt>
			<trkpt lat="35.00816029" lon="-106.31898046">
				<ele>2296.8</ele>
				<time>2021-04-17T20:02:52Z</time>
			</trkpt>
			<trkpt lat="35.00819451" lon="-106.31900088">
				<ele>2296.4</ele>
				<time>2021-04-17T20:02:56Z</time>
			</trkpt>
			<trkpt lat="35.00822459" lon="-106.31902553">
				<ele>2295.2</ele>
				<time>2021-04-17T20:02:59Z</time>
			</trkpt>
			<trkpt lat="35.00826777" lon="-106.31904298">
				<ele>2294.5</ele>
				<time>2021-04-17T20:03:03Z</time>
			</trkpt>
			<trkpt lat="35.00830439" lon="-106.31904656">
				<ele>2293.9</ele>
				<time>2021-04-17T20:03:06Z</time>
			</trkpt>
			<trkpt lat="35.00834776" lon="-106.31904818">
				<ele>2295</ele>
				<time>2021-04-17T20:03:10Z</time>
			</trkpt>
			<trkpt lat="35.00839321" lon="-106.31904809">
				<ele>2296.1</ele>
				<time>2021-04-17T20:03:15Z</time>
			</trkpt>
			<trkpt lat="35.00843397" lon="-106.31905497">
				<ele>2295</ele>
				<time>2021-04-17T20:03:19Z</time>
			</trkpt>
			<trkpt lat="35.00847154" lon="-106.31906689">
				<ele>2295.3</ele>
				<time>2021-04-17T20:03:23Z</time>
			</trkpt>
			<trkpt lat="35.00850494" lon="-106.31909093">
				<ele>2294.1</ele>
				<time>2021-04-17T20:03:27Z</time>
			</trkpt>
			<trkpt lat="35.00852438" lon="-106.31913338">
				<ele>2292.7</ele>
				<time>2021-04-17T20:03:33Z</time>
			</trkpt>
			<trkpt lat="35.00851236" lon="-106.31917482">
				<ele>2293</ele>
				<time>2021-04-17T20:03:37Z</time>
			</trkpt>
			<trkpt lat="35.00850299" lon="-106.31921805">
				<ele>2295.3</ele>
				<time>2021-04-17T20:03:41Z</time>
			</trkpt>
			<trkpt lat="35.00850036" lon="-106.31926215">
				<ele>2294.4</ele>
				<time>2021-04-17T20:03:45Z</time>
			</trkpt>
			<trkpt lat="35.00851571" lon="-106.31931248">
				<ele>2294.3</ele>
				<time>2021-04-17T20:03:49Z</time>
			</trkpt>
			<trkpt lat="35.00850756" lon="-106.31936955">
				<ele>2294</ele>
				<time>2021-04-17T20:03:53Z</time>
			</trkpt>
			<trkpt lat="35.00850453" lon="-106.31941711">
				<ele>2294.2</ele>
				<time>2021-04-17T20:03:57Z</time>
			</trkpt>
			<trkpt lat="35.00850759" lon="-106.31946591">
				<ele>2294.1</ele>
				<time>2021-04-17T20:04:01Z</time>
			</trkpt>
			<trkpt lat="35.00852173" lon="-106.31950928">
				<ele>2293.4</ele>
				<time>2021-04-17T20:04:05Z</time>
			</trkpt>
			<trkpt lat="35.0085498" lon="-106.3195527">
				<ele>2291.7</ele>
				<time>2021-04-17T20:04:09Z</time>
			</trkpt>
			<trkpt lat="35.00857014" lon="-106.31959703">
				<ele>2290.1</ele>
				<time>2021-04-17T20:04:13Z</time>
			</trkpt>
			<trkpt lat="35.00858255" lon="-106.31964302">
				<ele>2288.4</ele>
				<time>2021-04-17T20:04:17Z</time>
			</trkpt>
			<trkpt lat="35.00860798" lon="-106.31968267">
				<ele>2287.4</ele>
				<time>2021-04-17T20:04:21Z</time>
			</trkpt>
			<trkpt lat="35.00863303" lon="-106.3197226">
				<ele>2287.4</ele>
				<time>2021-04-17T20:04:24Z</time>
			</trkpt>
			<trkpt lat="35.00865586" lon="-106.31976346">
				<ele>2288.2</ele>
				<time>2021-04-17T20:04:27Z</time>
			</trkpt>
			<trkpt lat="35.0086836" lon="-106.31980904">
				<ele>2289.1</ele>
				<time>2021-04-17T20:04:31Z</time>
			</trkpt>
			<trkpt lat="35.00871338" lon="-106.31984366">
				<ele>2289.2</ele>
				<time>2021-04-17T20:04:35Z</time>
			</trkpt>
			<trkpt lat="35.00874599" lon="-106.31988007">
				<ele>2289.4</ele>
				<time>2021-04-17T20:04:39Z</time>
			</trkpt>
			<trkpt lat="35.00877078" lon="-106.31991567">
				<ele>2289.6</ele>
				<time>2021-04-17T20:04:43Z</time>
			</trkpt>
			<trkpt lat="35.00878953" lon="-106.31996119">
				<ele>2288.3</ele>
				<time>2021-04-17T20:04:48Z</time>
			</trkpt>
			<trkpt lat="35.00881182" lon="-106.32000122">
				<ele>2288.3</ele>
				<time>2021-04-17T20:04:52Z</time>
			</trkpt>
			<trkpt lat="35.00882402" lon="-106.32004286">
				<ele>2288.1</ele>
				<time>2021-04-17T20:04:56Z</time>
			</trkpt>
			<trkpt lat="35.00883189" lon="-106.32009185">
				<ele>2288.5</ele>
				<time>2021-04-17T20:05:00Z</time>
			</trkpt>
			<trkpt lat="35.00885275" lon="-106.32013009">
				<ele>2289.4</ele>
				<time>2021-04-17T20:05:04Z</time>
			</trkpt>
			<trkpt lat="35.00888863" lon="-106.3201612">
				<ele>2289.8</ele>
				<time>2021-04-17T20:05:08Z</time>
			</trkpt>
			<trkpt lat="35.00893643" lon="-106.32017701">
				<ele>2288.9</ele>
				<time>2021-04-17T20:05:12Z</time>
			</trkpt>
			<trkpt lat="35.00897748" lon="-106.32019775">
				<ele>2290.5</ele>
				<time>2021-04-17T20:05:16Z</time>
			</trkpt>
			<trkpt lat="35.00901516" lon="-106.32020918">
				<ele>2290</ele>
				<time>2021-04-17T20:05:19Z</time>
			</trkpt>
			<trkpt lat="35.00905551" lon="-106.32022251">
				<ele>2289.9</ele>
				<time>2021-04-17T20:05:23Z</time>
			</trkpt>
			<trkpt lat="35.00909092" lon="-106.32024611">
				<ele>2290.4</ele>
				<time>2021-04-17T20:05:27Z</time>
			</trkpt>
			<trkpt lat="35.00911701" lon="-106.32028893">
				<ele>2291.7</ele>
				<time>2021-04-17T20:05:32Z</time>
			</trkpt>
			<trkpt lat="35.00914043" lon="-106.32033241">
				<ele>2291.8</ele>
				<time>2021-04-17T20:05:37Z</time>
			</trkpt>
			<trkpt lat="35.00916993" lon="-106.32037052">
				<ele>2290.1</ele>
				<time>2021-04-17T20:05:42Z</time>
			</trkpt>
			<trkpt lat="35.00918331" lon="-106.32041594">
				<ele>2289.8</ele>
				<time>2021-04-17T20:05:47Z</time>
			</trkpt>
			<trkpt lat="35.00920744" lon="-106.32046133">
				<ele>2291.2</ele>
				<time>2021-04-17T20:05:52Z</time>
			</trkpt>
			<trkpt lat="35.00923039" lon="-106.32049618">
				<ele>2291.7</ele>
				<time>2021-04-17T20:05:56Z</time>
			</trkpt>
			<trkpt lat="35.00924347" lon="-106.32054275">
				<ele>2290.6</ele>
				<time>2021-04-17T20:06:04Z</time>
			</trkpt>
			<trkpt lat="35.00923992" lon="-106.32059306">
				<ele>2289.9</ele>
				<time>2021-04-17T20:06:14Z</time>
			</trkpt>
			<trkpt lat="35.00921281" lon="-106.32063805">
				<ele>2289.7</ele>
				<time>2021-04-17T20:06:21Z</time>
			</trkpt>
			<trkpt lat="35.0091827" lon="-106.32066442">
				<ele>2290.2</ele>
				<time>2021-04-17T20:06:25Z</time>
			</trkpt>
			<trkpt lat="35.0091458" lon="-106.32066704">
				<ele>2290.4</ele>
				<time>2021-04-17T20:06:29Z</time>
			</trkpt>
			<trkpt lat="35.00911042" lon="-106.32067581">
				<ele>2292.4</ele>
				<time>2021-04-17T20:06:35Z</time>
			</trkpt>
			<trkpt lat="35.00907374" lon="-106.32070619">
				<ele>2292.8</ele>
				<time>2021-04-17T20:07:05Z</time>
			</trkpt>
			<trkpt lat="35.00902981" lon="-106.32069996">
				<ele>2292.2</ele>
				<time>2021-04-17T20:07:09Z</time>
			</trkpt>
			<trkpt lat="35.00898953" lon="-106.32068391">
				<ele>2292.4</ele>
				<time>2021-04-17T20:07:14Z</time>
			</trkpt>
			<trkpt lat="35.00895126" lon="-106.32065521">
				<ele>2292.8</ele>
				<time>2021-04-17T20:07:19Z</time>
			</trkpt>
			<trkpt lat="35.00891772" lon="-106.32063217">
				<ele>2293.8</ele>
				<time>2021-04-17T20:07:23Z</time>
			</trkpt>
			<trkpt lat="35.00888216" lon="-106.3205964">
				<ele>2293.3</ele>
				<time>2021-04-17T20:07:27Z</time>
			</trkpt>
			<trkpt lat="35.00884295" lon="-106.3205722">
				<ele>2292.5</ele>
				<time>2021-04-17T20:07:31Z</time>
			</trkpt>
			<trkpt lat="35.00880689" lon="-106.32054716">
				<ele>2292.9</ele>
				<time>2021-04-17T20:07:35Z</time>
			</trkpt>
			<trkpt lat="35.00876366" lon="-106.32053084">
				<ele>2292.5</ele>
				<time>2021-04-17T20:07:39Z</time>
			</trkpt>
			<trkpt lat="35.00871999" lon="-106.32050984">
				<ele>2292.3</ele>
				<time>2021-04-17T20:07:43Z</time>
			</trkpt>
			<trkpt lat="35.00867502" lon="-106.32049995">
				<ele>2292.6</ele>
				<time>2021-04-17T20:07:48Z</time>
			</trkpt>
			<trkpt lat="35.00864044" lon="-106.32048674">
				<ele>2292.9</ele>
				<time>2021-04-17T20:07:52Z</time>
			</trkpt>
			<trkpt lat="35.00860401" lon="-106.32048365">
				<ele>2291.5</ele>
				<time>2021-04-17T20:07:57Z</time>
			</trkpt>
			<trkpt lat="35.00856612" lon="-106.32045875">
				<ele>2292</ele>
				<time>2021-04-17T20:08:02Z</time>
			</trkpt>
			<trkpt lat="35.00853456" lon="-106.32043115">
				<ele>2292.4</ele>
				<time>2021-04-17T20:08:06Z</time>
			</trkpt>
			<trkpt lat="35.00850491" lon="-106.32039938">
				<ele>2292.8</ele>
				<time>2021-04-17T20:08:10Z</time>
			</trkpt>
			<trkpt lat="35.00846796" lon="-106.32039414">
				<ele>2291.4</ele>
				<time>2021-04-17T20:08:14Z</time>
			</trkpt>
			<trkpt lat="35.00844589" lon="-106.32035908">
				<ele>2292.7</ele>
				<time>2021-04-17T20:08:17Z</time>
			</trkpt>
			<trkpt lat="35.00841829" lon="-106.3203278">
				<ele>2292.8</ele>
				<time>2021-04-17T20:08:20Z</time>
			</trkpt>
			<trkpt lat="35.00839689" lon="-106.32028794">
				<ele>2293.7</ele>
				<time>2021-04-17T20:08:24Z</time>
			</trkpt>
			<trkpt lat="35.00837743" lon="-106.32024762">
				<ele>2294.7</ele>
				<time>2021-04-17T20:08:28Z</time>
			</trkpt>
			<trkpt lat="35.00835234" lon="-106.32020372">
				<ele>2296.2</ele>
				<time>2021-04-17T20:08:32Z</time>
			</trkpt>
			<trkpt lat="35.0083243" lon="-106.32017223">
				<ele>2296.8</ele>
				<time>2021-04-17T20:08:35Z</time>
			</trkpt>
			<trkpt lat="35.00829957" lon="-106.32013776">
				<ele>2297.9</ele>
				<time>2021-04-17T20:08:38Z</time>
			</trkpt>
			<trkpt lat="35.00826008" lon="-106.32012">
				<ele>2295.6</ele>
				<time>2021-04-17T20:08:41Z</time>
			</trkpt>
			<trkpt lat="35.00822068" lon="-106.32010651">
				<ele>2294.6</ele>
				<time>2021-04-17T20:08:45Z</time>
			</trkpt>
			<trkpt lat="35.0081947" lon="-106.32007171">
				<ele>2294.6</ele>
				<time>2021-04-17T20:08:49Z</time>
			</trkpt>
			<trkpt lat="35.00817696" lon="-106.32002824">
				<ele>2296.1</ele>
				<time>2021-04-17T20:08:54Z</time>
			</trkpt>
			<trkpt lat="35.00815828" lon="-106.31998">
				<ele>2297.1</ele>
				<time>2021-04-17T20:08:59Z</time>
			</trkpt>
			<trkpt lat="35.00812985" lon="-106.31995057">
				<ele>2299.3</ele>
				<time>2021-04-17T20:09:03Z</time>
			</trkpt>
			<trkpt lat="35.00809776" lon="-106.31990963">
				<ele>2297.6</ele>
				<time>2021-04-17T20:09:08Z</time>
			</trkpt>
			<trkpt lat="35.00805598" lon="-106.31991069">
				<ele>2294.6</ele>
				<time>2021-04-17T20:09:10Z</time>
			</trkpt>
			<trkpt lat="35.00801753" lon="-106.3199076">
				<ele>2292.2</ele>
				<time>2021-04-17T20:09:12Z</time>
			</trkpt>
			<trkpt lat="35.00798136" lon="-106.31990082">
				<ele>2292.4</ele>
				<time>2021-04-17T20:09:14Z</time>
			</trkpt>
			<trkpt lat="35.00794799" lon="-106.31988223">
				<ele>2294.1</ele>
				<time>2021-04-17T20:09:17Z</time>
			</trkpt>
			<trkpt lat="35.00791123" lon="-106.31986873">
				<ele>2293.4</ele>
				<time>2021-04-17T20:09:20Z</time>
			</trkpt>
			<trkpt lat="35.00787519" lon="-106.31985182">
				<ele>2292.6</ele>
				<time>2021-04-17T20:09:23Z</time>
			</trkpt>
			<trkpt lat="35.00783289" lon="-106.31983763">
				<ele>2292.7</ele>
				<time>2021-04-17T20:09:27Z</time>
			</trkpt>
			<trkpt lat="35.00779425" lon="-106.31982958">
				<ele>2292.5</ele>
				<time>2021-04-17T20:09:31Z</time>
			</trkpt>
			<trkpt lat="35.00775364" lon="-106.31982669">
				<ele>2292.8</ele>
				<time>2021-04-17T20:09:35Z</time>
			</trkpt>
			<trkpt lat="35.00770991" lon="-106.31981483">
				<ele>2295</ele>
				<time>2021-04-17T20:09:40Z</time>
			</trkpt>
			<trkpt lat="35.00766332" lon="-106.31980805">
				<ele>2295.6</ele>
				<time>2021-04-17T20:09:45Z</time>
			</trkpt>
			<trkpt lat="35.0076208" lon="-106.31979836">
				<ele>2295.8</ele>
				<time>2021-04-17T20:09:49Z</time>
			</trkpt>
			<trkpt lat="35.0075789" lon="-106.31979324">
				<ele>2295.6</ele>
				<time>2021-04-17T20:09:53Z</time>
			</trkpt>
			<trkpt lat="35.0075465" lon="-106.31977336">
				<ele>2296.2</ele>
				<time>2021-04-17T20:09:57Z</time>
			</trkpt>
			<trkpt lat="35.00750087" lon="-106.31976304">
				<ele>2294.7</ele>
				<time>2021-04-17T20:10:01Z</time>
			</trkpt>
			<trkpt lat="35.0074544" lon="-106.31976324">
				<ele>2295.2</ele>
				<time>2021-04-17T20:10:05Z</time>
			</trkpt>
			<trkpt lat="35.00741611" lon="-106.3197535">
				<ele>2295.5</ele>
				<time>2021-04-17T20:10:09Z</time>
			</trkpt>
			<trkpt lat="35.00737761" lon="-106.31975755">
				<ele>2296.6</ele>
				<time>2021-04-17T20:10:13Z</time>
			</trkpt>
			<trkpt lat="35.00733842" lon="-106.31974085">
				<ele>2295.5</ele>
				<time>2021-04-17T20:10:17Z</time>
			</trkpt>
			<trkpt lat="35.00730395" lon="-106.31971975">
				<ele>2297.8</ele>
				<time>2021-04-17T20:10:21Z</time>
			</trkpt>
			<trkpt lat="35.00726856" lon="-106.31969428">
				<ele>2298.8</ele>
				<time>2021-04-17T20:10:25Z</time>
			</trkpt>
			<trkpt lat="35.00722938" lon="-106.31969372">
				<ele>2295.8</ele>
				<time>2021-04-17T20:10:28Z</time>
			</trkpt>
			<trkpt lat="35.00719376" lon="-106.31970684">
				<ele>2292.7</ele>
				<time>2021-04-17T20:10:30Z</time>
			</trkpt>
			<trkpt lat="35.00715037" lon="-106.31971724">
				<ele>2293.1</ele>
				<time>2021-04-17T20:10:33Z</time>
			</trkpt>
			<trkpt lat="35.00710423" lon="-106.31974074">
				<ele>2290.1</ele>
				<time>2021-04-17T20:10:37Z</time>
			</trkpt>
			<trkpt lat="35.00707113" lon="-106.31978613">
				<ele>2288.5</ele>
				<time>2021-04-17T20:10:40Z</time>
			</trkpt>
			<trkpt lat="35.00703296" lon="-106.31981512">
				<ele>2288.8</ele>
				<time>2021-04-17T20:10:43Z</time>
			</trkpt>
			<trkpt lat="35.00699209" lon="-106.31983953">
				<ele>2290</ele>
				<time>2021-04-17T20:10:46Z</time>
			</trkpt>
			<trkpt lat="35.00695581" lon="-106.31987621">
				<ele>2291.1</ele>
				<time>2021-04-17T20:10:49Z</time>
			</trkpt>
			<trkpt lat="35.00692567" lon="-106.31992105">
				<ele>2291.1</ele>
				<time>2021-04-17T20:10:52Z</time>
			</trkpt>
			<trkpt lat="35.00691354" lon="-106.31996591">
				<ele>2288.8</ele>
				<time>2021-04-17T20:10:54Z</time>
			</trkpt>
			<trkpt lat="35.00688622" lon="-106.32001639">
				<ele>2289</ele>
				<time>2021-04-17T20:10:57Z</time>
			</trkpt>
			<trkpt lat="35.00686313" lon="-106.32006307">
				<ele>2290.1</ele>
				<time>2021-04-17T20:11:00Z</time>
			</trkpt>
			<trkpt lat="35.00684807" lon="-106.32010508">
				<ele>2289.4</ele>
				<time>2021-04-17T20:11:03Z</time>
			</trkpt>
			<trkpt lat="35.00683016" lon="-106.32015068">
				<ele>2288.7</ele>
				<time>2021-04-17T20:11:07Z</time>
			</trkpt>
			<trkpt lat="35.00680197" lon="-106.32019625">
				<ele>2288.9</ele>
				<time>2021-04-17T20:11:11Z</time>
			</trkpt>
			<trkpt lat="35.00677406" lon="-106.32022915">
				<ele>2288.5</ele>
				<time>2021-04-17T20:11:14Z</time>
			</trkpt>
			<trkpt lat="35.00674846" lon="-106.32027082">
				<ele>2289.9</ele>
				<time>2021-04-17T20:11:39Z</time>
			</trkpt>
			<trkpt lat="35.00676002" lon="-106.32032226">
				<ele>2289.1</ele>
				<time>2021-04-17T20:11:45Z</time>
			</trkpt>
			<trkpt lat="35.00676916" lon="-106.32036802">
				<ele>2289.2</ele>
				<time>2021-04-17T20:11:50Z</time>
			</trkpt>
			<trkpt lat="35.00679249" lon="-106.32040336">
				<ele>2287.6</ele>
				<time>2021-04-17T20:11:54Z</time>
			</trkpt>
			<trkpt lat="35.0068057" lon="-106.32044915">
				<ele>2287.9</ele>
				<time>2021-04-17T20:11:59Z</time>
			</trkpt>
			<trkpt lat="35.00680134" lon="-106.32049475">
				<ele>2288.5</ele>
				<time>2021-04-17T20:12:05Z</time>
			</trkpt>
			<trkpt lat="35.00677998" lon="-106.32053899">
				<ele>2287.3</ele>
				<time>2021-04-17T20:12:13Z</time>
			</trkpt>
			<trkpt lat="35.00676975" lon="-106.32058473">
				<ele>2287.1</ele>
				<time>2021-04-17T20:12:18Z</time>
			</trkpt>
			<trkpt lat="35.00676535" lon="-106.32063083">
				<ele>2286.9</ele>
				<time>2021-04-17T20:12:24Z</time>
			</trkpt>
			<trkpt lat="35.00676013" lon="-106.32067811">
				<ele>2286</ele>
				<time>2021-04-17T20:12:30Z</time>
			</trkpt>
			<trkpt lat="35.00678146" lon="-106.32071867">
				<ele>2283.1</ele>
				<time>2021-04-17T20:12:58Z</time>
			</trkpt>
			<trkpt lat="35.00674294" lon="-106.32073346">
				<ele>2284.9</ele>
				<time>2021-04-17T20:13:08Z</time>
			</trkpt>
			<trkpt lat="35.00670715" lon="-106.32073899">
				<ele>2286.9</ele>
				<time>2021-04-17T20:13:33Z</time>
			</trkpt>
			<trkpt lat="35.00666811" lon="-106.32074162">
				<ele>2289.4</ele>
				<time>2021-04-17T20:13:45Z</time>
			</trkpt>
			<trkpt lat="35.00663493" lon="-106.3207103">
				<ele>2292.8</ele>
				<time>2021-04-17T20:13:56Z</time>
			</trkpt>
			<trkpt lat="35.00659574" lon="-106.32068121">
				<ele>2293.5</ele>
				<time>2021-04-17T20:14:01Z</time>
			</trkpt>
			<trkpt lat="35.00655867" lon="-106.32066901">
				<ele>2293.5</ele>
				<time>2021-04-17T20:14:05Z</time>
			</trkpt>
			<trkpt lat="35.00651481" lon="-106.3206751">
				<ele>2292.7</ele>
				<time>2021-04-17T20:14:10Z</time>
			</trkpt>
			<trkpt lat="35.00649186" lon="-106.32072481">
				<ele>2290.2</ele>
				<time>2021-04-17T20:14:14Z</time>
			</trkpt>
			<trkpt lat="35.00648429" lon="-106.32076901">
				<ele>2289.4</ele>
				<time>2021-04-17T20:14:17Z</time>
			</trkpt>
			<trkpt lat="35.00647811" lon="-106.32081851">
				<ele>2288.2</ele>
				<time>2021-04-17T20:14:21Z</time>
			</trkpt>
			<trkpt lat="35.00647979" lon="-106.32086784">
				<ele>2287.9</ele>
				<time>2021-04-17T20:14:25Z</time>
			</trkpt>
			<trkpt lat="35.0064934" lon="-106.32091261">
				<ele>2288.1</ele>
				<time>2021-04-17T20:14:28Z</time>
			</trkpt>
			<trkpt lat="35.00651229" lon="-106.32095783">
				<ele>2288</ele>
				<time>2021-04-17T20:14:32Z</time>
			</trkpt>
			<trkpt lat="35.00652293" lon="-106.3210102">
				<ele>2288.2</ele>
				<time>2021-04-17T20:14:37Z</time>
			</trkpt>
			<trkpt lat="35.00652949" lon="-106.32105504">
				<ele>2287.7</ele>
				<time>2021-04-17T20:14:41Z</time>
			</trkpt>
			<trkpt lat="35.00652316" lon="-106.32110178">
				<ele>2288</ele>
				<time>2021-04-17T20:14:46Z</time>
			</trkpt>
			<trkpt lat="35.0065116" lon="-106.32115335">
				<ele>2288.6</ele>
				<time>2021-04-17T20:14:50Z</time>
			</trkpt>
			<trkpt lat="35.00649762" lon="-106.32119997">
				<ele>2287.2</ele>
				<time>2021-04-17T20:14:54Z</time>
			</trkpt>
			<trkpt lat="35.00647327" lon="-106.32123314">
				<ele>2287.4</ele>
				<time>2021-04-17T20:14:58Z</time>
			</trkpt>
			<trkpt lat="35.00644806" lon="-106.32127723">
				<ele>2287</ele>
				<time>2021-04-17T20:15:03Z</time>
			</trkpt>
			<trkpt lat="35.00641498" lon="-106.32130944">
				<ele>2288.7</ele>
				<time>2021-04-17T20:15:08Z</time>
			</trkpt>
			<trkpt lat="35.0063818" lon="-106.32133345">
				<ele>2290.5</ele>
				<time>2021-04-17T20:15:14Z</time>
			</trkpt>
			<trkpt lat="35.00635796" lon="-106.32137112">
				<ele>2290.9</ele>
				<time>2021-04-17T20:15:18Z</time>
			</trkpt>
			<trkpt lat="35.00633894" lon="-106.32141331">
				<ele>2290.7</ele>
				<time>2021-04-17T20:15:22Z</time>
			</trkpt>
			<trkpt lat="35.00631669" lon="-106.32144885">
				<ele>2290.6</ele>
				<time>2021-04-17T20:15:28Z</time>
			</trkpt>
			<trkpt lat="35.00631821" lon="-106.32149379">
				<ele>2288.4</ele>
				<time>2021-04-17T20:16:41Z</time>
			</trkpt>
			<trkpt lat="35.00627867" lon="-106.32149406">
				<ele>2290.8</ele>
				<time>2021-04-17T20:17:54Z</time>
			</trkpt>
			<trkpt lat="35.0062366" lon="-106.32148439">
				<ele>2292.9</ele>
				<time>2021-04-17T20:17:59Z</time>
			</trkpt>
			<trkpt lat="35.00619742" lon="-106.3214859">
				<ele>2293.2</ele>
				<time>2021-04-17T20:18:03Z</time>
			</trkpt>
			<trkpt lat="35.00615656" lon="-106.32148887">
				<ele>2293.3</ele>
				<time>2021-04-17T20:18:07Z</time>
			</trkpt>
			<trkpt lat="35.0061127" lon="-106.32148703">
				<ele>2294</ele>
				<time>2021-04-17T20:18:11Z</time>
			</trkpt>
			<trkpt lat="35.00607632" lon="-106.32148406">
				<ele>2294.4</ele>
				<time>2021-04-17T20:18:15Z</time>
			</trkpt>
			<trkpt lat="35.00603514" lon="-106.32147188">
				<ele>2294.9</ele>
				<time>2021-04-17T20:18:20Z</time>
			</trkpt>
			<trkpt lat="35.00600514" lon="-106.32144481">
				<ele>2296.1</ele>
				<time>2021-04-17T20:18:24Z</time>
			</trkpt>
			<trkpt lat="35.00596336" lon="-106.32142229">
				<ele>2296.7</ele>
				<time>2021-04-17T20:18:29Z</time>
			</trkpt>
			<trkpt lat="35.00591738" lon="-106.32142005">
				<ele>2295.8</ele>
				<time>2021-04-17T20:18:33Z</time>
			</trkpt>
			<trkpt lat="35.00588186" lon="-106.32143198">
				<ele>2295.1</ele>
				<time>2021-04-17T20:18:36Z</time>
			</trkpt>
			<trkpt lat="35.00584073" lon="-106.32144402">
				<ele>2294.9</ele>
				<time>2021-04-17T20:18:41Z</time>
			</trkpt>
			<trkpt lat="35.0058128" lon="-106.32141067">
				<ele>2295.4</ele>
				<time>2021-04-17T20:18:48Z</time>
			</trkpt>
			<trkpt lat="35.00579104" lon="-106.32137376">
				<ele>2297.7</ele>
				<time>2021-04-17T20:18:56Z</time>
			</trkpt>
			<trkpt lat="35.00575921" lon="-106.32133655">
				<ele>2297.4</ele>
				<time>2021-04-17T20:19:03Z</time>
			</trkpt>
			<trkpt lat="35.00572924" lon="-106.32129919">
				<ele>2297.2</ele>
				<time>2021-04-17T20:19:08Z</time>
			</trkpt>
			<trkpt lat="35.00570166" lon="-106.32126596">
				<ele>2296.2</ele>
				<time>2021-04-17T20:19:13Z</time>
			</trkpt>
			<trkpt lat="35.00568438" lon="-106.32122672">
				<ele>2297.4</ele>
				<time>2021-04-17T20:19:17Z</time>
			</trkpt>
			<trkpt lat="35.005662" lon="-106.32118661">
				<ele>2299.2</ele>
				<time>2021-04-17T20:19:21Z</time>
			</trkpt>
			<trkpt lat="35.00563347" lon="-106.32114918">
				<ele>2299.4</ele>
				<time>2021-04-17T20:19:25Z</time>
			</trkpt>
			<trkpt lat="35.00560309" lon="-106.32112304">
				<ele>2298.8</ele>
				<time>2021-04-17T20:19:29Z</time>
			</trkpt>
			<trkpt lat="35.00558254" lon="-106.32107841">
				<ele>2299.6</ele>
				<time>2021-04-17T20:19:35Z</time>
			</trkpt>
			<trkpt lat="35.00556137" lon="-106.32104178">
				<ele>2296.3</ele>
				<time>2021-04-17T20:19:40Z</time>
			</trkpt>
			<trkpt lat="35.00556722" lon="-106.32099256">
				<ele>2297.4</ele>
				<time>2021-04-17T20:19:45Z</time>
			</trkpt>
			<trkpt lat="35.00556708" lon="-106.3209391">
				<ele>2298.8</ele>
				<time>2021-04-17T20:19:50Z</time>
			</trkpt>
			<trkpt lat="35.00554929" lon="-106.32089147">
				<ele>2299.5</ele>
				<time>2021-04-17T20:19:55Z</time>
			</trkpt>
			<trkpt lat="35.00552749" lon="-106.32084396">
				<ele>2300</ele>
				<time>2021-04-17T20:19:59Z</time>
			</trkpt>
			<trkpt lat="35.00548846" lon="-106.32080415">
				<ele>2298</ele>
				<time>2021-04-17T20:20:03Z</time>
			</trkpt>
			<trkpt lat="35.00545129" lon="-106.32077565">
				<ele>2296.9</ele>
				<time>2021-04-17T20:20:06Z</time>
			</trkpt>
			<trkpt lat="35.00541294" lon="-106.3207559">
				<ele>2295.8</ele>
				<time>2021-04-17T20:20:09Z</time>
			</trkpt>
			<trkpt lat="35.00536947" lon="-106.32074011">
				<ele>2296.3</ele>
				<time>2021-04-17T20:20:13Z</time>
			</trkpt>
			<trkpt lat="35.0053284" lon="-106.32071343">
				<ele>2297.5</ele>
				<time>2021-04-17T20:20:17Z</time>
			</trkpt>
			<trkpt lat="35.00529196" lon="-106.32070119">
				<ele>2296.7</ele>
				<time>2021-04-17T20:20:20Z</time>
			</trkpt>
			<trkpt lat="35.00524795" lon="-106.32070149">
				<ele>2294.7</ele>
				<time>2021-04-17T20:20:23Z</time>
			</trkpt>
			<trkpt lat="35.00520582" lon="-106.3207088">
				<ele>2292.8</ele>
				<time>2021-04-17T20:20:26Z</time>
			</trkpt>
			<trkpt lat="35.00515958" lon="-106.32071723">
				<ele>2290.9</ele>
				<time>2021-04-17T20:20:29Z</time>
			</trkpt>
			<trkpt lat="35.00512063" lon="-106.32072172">
				<ele>2289.9</ele>
				<time>2021-04-17T20:20:32Z</time>
			</trkpt>
			<trkpt lat="35.00508803" lon="-106.3207474">
				<ele>2290.1</ele>
				<time>2021-04-17T20:20:35Z</time>
			</trkpt>
			<trkpt lat="35.00505927" lon="-106.32077644">
				<ele>2288.3</ele>
				<time>2021-04-17T20:20:38Z</time>
			</trkpt>
			<trkpt lat="35.00501516" lon="-106.32079114">
				<ele>2287.1</ele>
				<time>2021-04-17T20:20:43Z</time>
			</trkpt>
			<trkpt lat="35.00497341" lon="-106.32080676">
				<ele>2286.9</ele>
				<time>2021-04-17T20:20:48Z</time>
			</trkpt>
			<trkpt lat="35.00494154" lon="-106.32083535">
				<ele>2285.2</ele>
				<time>2021-04-17T20:20:52Z</time>
			</trkpt>
			<trkpt lat="35.00490662" lon="-106.32086129">
				<ele>2286</ele>
				<time>2021-04-17T20:20:56Z</time>
			</trkpt>
			<trkpt lat="35.00487038" lon="-106.32086979">
				<ele>2286.6</ele>
				<time>2021-04-17T20:21:00Z</time>
			</trkpt>
			<trkpt lat="35.0048295" lon="-106.32086293">
				<ele>2288.1</ele>
				<time>2021-04-17T20:21:05Z</time>
			</trkpt>
			<trkpt lat="35.0047867" lon="-106.32086129">
				<ele>2288.1</ele>
				<time>2021-04-17T20:21:09Z</time>
			</trkpt>
			<trkpt lat="35.00475013" lon="-106.32083965">
				<ele>2291</ele>
				<time>2021-04-17T20:21:13Z</time>
			</trkpt>
			<trkpt lat="35.00471177" lon="-106.32083615">
				<ele>2292.3</ele>
				<time>2021-04-17T20:21:17Z</time>
			</trkpt>
			<trkpt lat="35.00466946" lon="-106.32086307">
				<ele>2292.2</ele>
				<time>2021-04-17T20:21:21Z</time>
			</trkpt>
			<trkpt lat="35.00463409" lon="-106.32089233">
				<ele>2290.9</ele>
				<time>2021-04-17T20:21:25Z</time>
			</trkpt>
			<trkpt lat="35.00461141" lon="-106.32092829">
				<ele>2288.8</ele>
				<time>2021-04-17T20:21:28Z</time>
			</trkpt>
			<trkpt lat="35.004587" lon="-106.32096278">
				<ele>2288</ele>
				<time>2021-04-17T20:21:31Z</time>
			</trkpt>
			<trkpt lat="35.00455716" lon="-106.32099509">
				<ele>2287.3</ele>
				<time>2021-04-17T20:21:34Z</time>
			</trkpt>
			<trkpt lat="35.00451737" lon="-106.32101634">
				<ele>2288.3</ele>
				<time>2021-04-17T20:21:38Z</time>
			</trkpt>
			<trkpt lat="35.00448518" lon="-106.32105049">
				<ele>2288.6</ele>
				<time>2021-04-17T20:21:42Z</time>
			</trkpt>
			<trkpt lat="35.00444759" lon="-106.32108238">
				<ele>2287.5</ele>
				<time>2021-04-17T20:21:46Z</time>
			</trkpt>
			<trkpt lat="35.00440897" lon="-106.32109753">
				<ele>2287.8</ele>
				<time>2021-04-17T20:21:50Z</time>
			</trkpt>
			<trkpt lat="35.00437005" lon="-106.32110571">
				<ele>2289</ele>
				<time>2021-04-17T20:21:54Z</time>
			</trkpt>
			<trkpt lat="35.00432792" lon="-106.32111436">
				<ele>2291.6</ele>
				<time>2021-04-17T20:21:58Z</time>
			</trkpt>
			<trkpt lat="35.0042864" lon="-106.32113389">
				<ele>2290.2</ele>
				<time>2021-04-17T20:22:03Z</time>
			</trkpt>
			<trkpt lat="35.00425875" lon="-106.3211804">
				<ele>2286.6</ele>
				<time>2021-04-17T20:22:07Z</time>
			</trkpt>
			<trkpt lat="35.00422765" lon="-106.32120546">
				<ele>2286.2</ele>
				<time>2021-04-17T20:22:10Z</time>
			</trkpt>
			<trkpt lat="35.00419245" lon="-106.3212356">
				<ele>2286.8</ele>
				<time>2021-04-17T20:22:14Z</time>
			</trkpt>
			<trkpt lat="35.00416123" lon="-106.3212603">
				<ele>2285.6</ele>
				<time>2021-04-17T20:22:18Z</time>
			</trkpt>
			<trkpt lat="35.00412277" lon="-106.32129148">
				<ele>2286.7</ele>
				<time>2021-04-17T20:22:22Z</time>
			</trkpt>
			<trkpt lat="35.00409055" lon="-106.32132082">
				<ele>2286.6</ele>
				<time>2021-04-17T20:22:26Z</time>
			</trkpt>
			<trkpt lat="35.00406606" lon="-106.3213669">
				<ele>2282.5</ele>
				<time>2021-04-17T20:22:30Z</time>
			</trkpt>
			<trkpt lat="35.00404125" lon="-106.32140868">
				<ele>2283.5</ele>
				<time>2021-04-17T20:22:34Z</time>
			</trkpt>
			<trkpt lat="35.00401047" lon="-106.32145197">
				<ele>2282.9</ele>
				<time>2021-04-17T20:22:38Z</time>
			</trkpt>
			<trkpt lat="35.00398563" lon="-106.32148756">
				<ele>2282.5</ele>
				<time>2021-04-17T20:22:41Z</time>
			</trkpt>
			<trkpt lat="35.00394591" lon="-106.32150311">
				<ele>2282.9</ele>
				<time>2021-04-17T20:22:45Z</time>
			</trkpt>
			<trkpt lat="35.0039007" lon="-106.32150893">
				<ele>2283.1</ele>
				<time>2021-04-17T20:22:51Z</time>
			</trkpt>
			<trkpt lat="35.00386617" lon="-106.3214892">
				<ele>2283.6</ele>
				<time>2021-04-17T20:22:55Z</time>
			</trkpt>
			<trkpt lat="35.00382041" lon="-106.3214905">
				<ele>2284.8</ele>
				<time>2021-04-17T20:23:10Z</time>
			</trkpt>
			<trkpt lat="35.00377583" lon="-106.32147768">
				<ele>2285</ele>
				<time>2021-04-17T20:23:14Z</time>
			</trkpt>
			<trkpt lat="35.00374056" lon="-106.32146734">
				<ele>2285.5</ele>
				<time>2021-04-17T20:23:18Z</time>
			</trkpt>
			<trkpt lat="35.00369957" lon="-106.32145888">
				<ele>2285.3</ele>
				<time>2021-04-17T20:23:23Z</time>
			</trkpt>
			<trkpt lat="35.00365835" lon="-106.32144812">
				<ele>2285.9</ele>
				<time>2021-04-17T20:23:28Z</time>
			</trkpt>
			<trkpt lat="35.0036238" lon="-106.32143098">
				<ele>2285.7</ele>
				<time>2021-04-17T20:23:33Z</time>
			</trkpt>
			<trkpt lat="35.00359547" lon="-106.32138663">
				<ele>2286.9</ele>
				<time>2021-04-17T20:23:40Z</time>
			</trkpt>
			<trkpt lat="35.00357249" lon="-106.32135266">
				<ele>2286.5</ele>
				<time>2021-04-17T20:23:44Z</time>
			</trkpt>
			<trkpt lat="35.00356313" lon="-106.3213047">
				<ele>2285.4</ele>
				<time>2021-04-17T20:23:49Z</time>
			</trkpt>
			<trkpt lat="35.0035593" lon="-106.3212552">
				<ele>2284.6</ele>
				<time>2021-04-17T20:23:53Z</time>
			</trkpt>
			<trkpt lat="35.00354571" lon="-106.32120813">
				<ele>2283.7</ele>
				<time>2021-04-17T20:23:58Z</time>
			</trkpt>
			<trkpt lat="35.00353683" lon="-106.32116304">
				<ele>2285.2</ele>
				<time>2021-04-17T20:24:02Z</time>
			</trkpt>
			<trkpt lat="35.00352983" lon="-106.32110889">
				<ele>2286.8</ele>
				<time>2021-04-17T20:24:06Z</time>
			</trkpt>
			<trkpt lat="35.00351208" lon="-106.32106764">
				<ele>2288.8</ele>
				<time>2021-04-17T20:24:10Z</time>
			</trkpt>
			<trkpt lat="35.00349551" lon="-106.32102574">
				<ele>2288</ele>
				<time>2021-04-17T20:24:14Z</time>
			</trkpt>
			<trkpt lat="35.00349463" lon="-106.320978">
				<ele>2290</ele>
				<time>2021-04-17T20:24:18Z</time>
			</trkpt>
			<trkpt lat="35.00350685" lon="-106.32092837">
				<ele>2290.4</ele>
				<time>2021-04-17T20:24:23Z</time>
			</trkpt>
			<trkpt lat="35.00350925" lon="-106.32087685">
				<ele>2291.7</ele>
				<time>2021-04-17T20:24:28Z</time>
			</trkpt>
			<trkpt lat="35.00347693" lon="-106.32084499">
				<ele>2293.3</ele>
				<time>2021-04-17T20:24:33Z</time>
			</trkpt>
			<trkpt lat="35.0034324" lon="-106.32082273">
				<ele>2292.8</ele>
				<time>2021-04-17T20:24:36Z</time>
			</trkpt>
			<trkpt lat="35.00339298" lon="-106.32079648">
				<ele>2291.7</ele>
				<time>2021-04-17T20:24:39Z</time>
			</trkpt>
			<trkpt lat="35.00335308" lon="-106.32077683">
				<ele>2289.6</ele>
				<time>2021-04-17T20:24:43Z</time>
			</trkpt>
			<trkpt lat="35.00331404" lon="-106.3207583">
				<ele>2288.5</ele>
				<time>2021-04-17T20:24:46Z</time>
			</trkpt>
			<trkpt lat="35.00328203" lon="-106.3207354">
				<ele>2288.4</ele>
				<time>2021-04-17T20:24:49Z</time>
			</trkpt>
			<trkpt lat="35.00324739" lon="-106.32070466">
				<ele>2288.3</ele>
				<time>2021-04-17T20:24:52Z</time>
			</trkpt>
			<trkpt lat="35.00320901" lon="-106.3206892">
				<ele>2289.3</ele>
				<time>2021-04-17T20:24:55Z</time>
			</trkpt>
			<trkpt lat="35.00317267" lon="-106.3206666">
				<ele>2291.1</ele>
				<time>2021-04-17T20:24:58Z</time>
			</trkpt>
			<trkpt lat="35.00313783" lon="-106.32065227">
				<ele>2291.3</ele>
				<time>2021-04-17T20:25:01Z</time>
			</trkpt>
			<trkpt lat="35.00310182" lon="-106.32063665">
				<ele>2292</ele>
				<time>2021-04-17T20:25:04Z</time>
			</trkpt>
			<trkpt lat="35.00305965" lon="-106.32062448">
				<ele>2292.3</ele>
				<time>2021-04-17T20:25:08Z</time>
			</trkpt>
			<trkpt lat="35.00302214" lon="-106.32062934">
				<ele>2292.2</ele>
				<time>2021-04-17T20:25:11Z</time>
			</trkpt>
			<trkpt lat="35.00298694" lon="-106.32061121">
				<ele>2292</ele>
				<time>2021-04-17T20:25:15Z</time>
			</trkpt>
			<trkpt lat="35.00295449" lon="-106.3205913">
				<ele>2294.5</ele>
				<time>2021-04-17T20:25:19Z</time>
			</trkpt>
			<trkpt lat="35.00293846" lon="-106.32054805">
				<ele>2294.8</ele>
				<time>2021-04-17T20:25:27Z</time>
			</trkpt>
			<trkpt lat="35.00297068" lon="-106.32052592">
				<ele>2296.5</ele>
				<time>2021-04-17T20:25:45Z</time>
			</trkpt>
			<trkpt lat="35.00300684" lon="-106.32052435">
				<ele>2297.1</ele>
				<time>2021-04-17T20:25:50Z</time>
			</trkpt>
			<trkpt lat="35.00304563" lon="-106.32053739">
				<ele>2298.8</ele>
				<time>2021-04-17T20:25:55Z</time>
			</trkpt>
			<trkpt lat="35.00308628" lon="-106.32053052">
				<ele>2301.9</ele>
				<time>2021-04-17T20:26:00Z</time>
			</trkpt>
			<trkpt lat="35.00312351" lon="-106.3205192">
				<ele>2304.4</ele>
				<time>2021-04-17T20:26:05Z</time>
			</trkpt>
			<trkpt lat="35.00316408" lon="-106.3205066">
				<ele>2305.6</ele>
				<time>2021-04-17T20:26:11Z</time>
			</trkpt>
			<trkpt lat="35.0032021" lon="-106.32050041">
				<ele>2304.8</ele>
				<time>2021-04-17T20:26:17Z</time>
			</trkpt>
			<trkpt lat="35.00324409" lon="-106.32048485">
				<ele>2303.5</ele>
				<time>2021-04-17T20:26:22Z</time>
			</trkpt>
			<trkpt lat="35.00328155" lon="-106.32046657">
				<ele>2302.9</ele>
				<time>2021-04-17T20:26:26Z</time>
			</trkpt>
			<trkpt lat="35.00331827" lon="-106.32044941">
				<ele>2301.6</ele>
				<time>2021-04-17T20:26:30Z</time>
			</trkpt>
			<trkpt lat="35.00334426" lon="-106.32041835">
				<ele>2299.3</ele>
				<time>2021-04-17T20:26:33Z</time>
			</trkpt>
			<trkpt lat="35.00337966" lon="-106.32038913">
				<ele>2300.9</ele>
				<time>2021-04-17T20:26:37Z</time>
			</trkpt>
			<trkpt lat="35.00341037" lon="-106.32035914">
				<ele>2301.3</ele>
				<time>2021-04-17T20:26:41Z</time>
			</trkpt>
			<trkpt lat="35.0034285" lon="-106.32031931">
				<ele>2299.6</ele>
				<time>2021-04-17T20:26:48Z</time>
			</trkpt>
			<trkpt lat="35.00346767" lon="-106.32028954">
				<ele>2299.8</ele>
				<time>2021-04-17T20:26:52Z</time>
			</trkpt>
			<trkpt lat="35.00350927" lon="-106.32029032">
				<ele>2301.8</ele>
				<time>2021-04-17T20:26:56Z</time>
			</trkpt>
			<trkpt lat="35.00354568" lon="-106.32029467">
				<ele>2303.4</ele>
				<time>2021-04-17T20:27:00Z</time>
			</trkpt>
			<trkpt lat="35.00357582" lon="-106.32027001">
				<ele>2304</ele>
				<time>2021-04-17T20:27:03Z</time>
			</trkpt>
			<trkpt lat="35.00358012" lon="-106.32020837">
				<ele>2302</ele>
				<time>2021-04-17T20:27:07Z</time>
			</trkpt>
			<trkpt lat="35.00358215" lon="-106.32016156">
				<ele>2301</ele>
				<time>2021-04-17T20:27:09Z</time>
			</trkpt>
			<trkpt lat="35.0035717" lon="-106.32011778">
				<ele>2300.4</ele>
				<time>2021-04-17T20:27:11Z</time>
			</trkpt>
			<trkpt lat="35.00354568" lon="-106.32006763">
				<ele>2299.9</ele>
				<time>2021-04-17T20:27:14Z</time>
			</trkpt>
			<trkpt lat="35.00351538" lon="-106.32003664">
				<ele>2299.2</ele>
				<time>2021-04-17T20:27:17Z</time>
			</trkpt>
			<trkpt lat="35.00348241" lon="-106.31999486">
				<ele>2299.9</ele>
				<time>2021-04-17T20:27:22Z</time>
			</trkpt>
			<trkpt lat="35.00345563" lon="-106.31995419">
				<ele>2300</ele>
				<time>2021-04-17T20:27:26Z</time>
			</trkpt>
			<trkpt lat="35.00342385" lon="-106.3199169">
				<ele>2300.1</ele>
				<time>2021-04-17T20:27:30Z</time>
			</trkpt>
			<trkpt lat="35.00339827" lon="-106.31988407">
				<ele>2302.4</ele>
				<time>2021-04-17T20:27:34Z</time>
			</trkpt>
			<trkpt lat="35.00338161" lon="-106.31983431">
				<ele>2304.1</ele>
				<time>2021-04-17T20:27:38Z</time>
			</trkpt>
			<trkpt lat="35.00336681" lon="-106.31978446">
				<ele>2305.6</ele>
				<time>2021-04-17T20:27:42Z</time>
			</trkpt>
			<trkpt lat="35.00334528" lon="-106.31974166">
				<ele>2307.6</ele>
				<time>2021-04-17T20:27:46Z</time>
			</trkpt>
			<trkpt lat="35.00331496" lon="-106.31970505">
				<ele>2308.6</ele>
				<time>2021-04-17T20:27:50Z</time>
			</trkpt>
			<trkpt lat="35.00329347" lon="-106.31966913">
				<ele>2308.7</ele>
				<time>2021-04-17T20:27:53Z</time>
			</trkpt>
			<trkpt lat="35.00326144" lon="-106.31964831">
				<ele>2308</ele>
				<time>2021-04-17T20:27:56Z</time>
			</trkpt>
			<trkpt lat="35.00322422" lon="-106.31963098">
				<ele>2308.1</ele>
				<time>2021-04-17T20:28:00Z</time>
			</trkpt>
			<trkpt lat="35.00318537" lon="-106.31962474">
				<ele>2308.6</ele>
				<time>2021-04-17T20:28:03Z</time>
			</trkpt>
			<trkpt lat="35.00314337" lon="-106.31962224">
				<ele>2307.3</ele>
				<time>2021-04-17T20:28:06Z</time>
			</trkpt>
			<trkpt lat="35.00310183" lon="-106.31961702">
				<ele>2306.6</ele>
				<time>2021-04-17T20:28:09Z</time>
			</trkpt>
			<trkpt lat="35.00306108" lon="-106.31962326">
				<ele>2305.9</ele>
				<time>2021-04-17T20:28:12Z</time>
			</trkpt>
			<trkpt lat="35.00302113" lon="-106.3196419">
				<ele>2304.8</ele>
				<time>2021-04-17T20:28:15Z</time>
			</trkpt>
			<trkpt lat="35.00297773" lon="-106.31965903">
				<ele>2303.7</ele>
				<time>2021-04-17T20:28:19Z</time>
			</trkpt>
			<trkpt lat="35.00294337" lon="-106.31967374">
				<ele>2302.5</ele>
				<time>2021-04-17T20:28:22Z</time>
			</trkpt>
			<trkpt lat="35.00290034" lon="-106.31968735">
				<ele>2301.9</ele>
				<time>2021-04-17T20:28:25Z</time>
			</trkpt>
			<trkpt lat="35.00285971" lon="-106.31968954">
				<ele>2301.3</ele>
				<time>2021-04-17T20:28:29Z</time>
			</trkpt>
			<trkpt lat="35.00281148" lon="-106.31970055">
				<ele>2300.3</ele>
				<time>2021-04-17T20:28:33Z</time>
			</trkpt>
			<trkpt lat="35.00276343" lon="-106.31970773">
				<ele>2302.4</ele>
				<time>2021-04-17T20:28:37Z</time>
			</trkpt>
			<trkpt lat="35.00272712" lon="-106.31971145">
				<ele>2302.1</ele>
				<time>2021-04-17T20:28:40Z</time>
			</trkpt>
			<trkpt lat="35.00268531" lon="-106.31969973">
				<ele>2303</ele>
				<time>2021-04-17T20:28:45Z</time>
			</trkpt>
			<trkpt lat="35.00264998" lon="-106.31968683">
				<ele>2303.3</ele>
				<time>2021-04-17T20:28:51Z</time>
			</trkpt>
			<trkpt lat="35.00265035" lon="-106.31973459">
				<ele>2301.5</ele>
				<time>2021-04-17T20:28:56Z</time>
			</trkpt>
			<trkpt lat="35.00262988" lon="-106.31977904">
				<ele>2300.9</ele>
				<time>2021-04-17T20:29:36Z</time>
			</trkpt>
			<trkpt lat="35.00260565" lon="-106.3197437">
				<ele>2301.3</ele>
				<time>2021-04-17T20:30:27Z</time>
			</trkpt>
			<trkpt lat="35.00256677" lon="-106.31975272">
				<ele>2300.4</ele>
				<time>2021-04-17T20:31:55Z</time>
			</trkpt>
			<trkpt lat="35.00252697" lon="-106.31974479">
				<ele>2303.7</ele>
				<time>2021-04-17T20:32:00Z</time>
			</trkpt>
			<trkpt lat="35.00248853" lon="-106.31974024">
				<ele>2303.1</ele>
				<time>2021-04-17T20:32:06Z</time>
			</trkpt>
			<trkpt lat="35.00244706" lon="-106.31971974">
				<ele>2303</ele>
				<time>2021-04-17T20:32:10Z</time>
			</trkpt>
			<trkpt lat="35.00240722" lon="-106.31972414">
				<ele>2302.7</ele>
				<time>2021-04-17T20:32:13Z</time>
			</trkpt>
			<trkpt lat="35.00236825" lon="-106.31973275">
				<ele>2301.9</ele>
				<time>2021-04-17T20:32:16Z</time>
			</trkpt>
			<trkpt lat="35.00233153" lon="-106.31974676">
				<ele>2301</ele>
				<time>2021-04-17T20:32:19Z</time>
			</trkpt>
			<trkpt lat="35.002295" lon="-106.31975379">
				<ele>2301.3</ele>
				<time>2021-04-17T20:32:22Z</time>
			</trkpt>
			<trkpt lat="35.00224918" lon="-106.31976908">
				<ele>2301.6</ele>
				<time>2021-04-17T20:32:26Z</time>
			</trkpt>
			<trkpt lat="35.00220547" lon="-106.31978203">
				<ele>2301.6</ele>
				<time>2021-04-17T20:32:30Z</time>
			</trkpt>
			<trkpt lat="35.00216753" lon="-106.31980692">
				<ele>2302.3</ele>
				<time>2021-04-17T20:32:34Z</time>
			</trkpt>
			<trkpt lat="35.00213254" lon="-106.3198222">
				<ele>2303.1</ele>
				<time>2021-04-17T20:32:37Z</time>
			</trkpt>
			<trkpt lat="35.00209469" lon="-106.31985393">
				<ele>2302.9</ele>
				<time>2021-04-17T20:32:41Z</time>
			</trkpt>
			<trkpt lat="35.00206536" lon="-106.31988804">
				<ele>2301.9</ele>
				<time>2021-04-17T20:32:44Z</time>
			</trkpt>
			<trkpt lat="35.00203094" lon="-106.31991029">
				<ele>2304.4</ele>
				<time>2021-04-17T20:32:47Z</time>
			</trkpt>
			<trkpt lat="35.00200099" lon="-106.31995359">
				<ele>2304.1</ele>
				<time>2021-04-17T20:32:51Z</time>
			</trkpt>
			<trkpt lat="35.00196769" lon="-106.31999639">
				<ele>2303.9</ele>
				<time>2021-04-17T20:32:55Z</time>
			</trkpt>
			<trkpt lat="35.00193424" lon="-106.32003311">
				<ele>2303.7</ele>
				<time>2021-04-17T20:32:59Z</time>
			</trkpt>
			<trkpt lat="35.00190245" lon="-106.32006242">
				<ele>2305.5</ele>
				<time>2021-04-17T20:33:02Z</time>
			</trkpt>
			<trkpt lat="35.00187764" lon="-106.32009484">
				<ele>2304.2</ele>
				<time>2021-04-17T20:33:05Z</time>
			</trkpt>
			<trkpt lat="35.0018595" lon="-106.32013294">
				<ele>2302.3</ele>
				<time>2021-04-17T20:33:08Z</time>
			</trkpt>
			<trkpt lat="35.00183052" lon="-106.32016007">
				<ele>2300.9</ele>
				<time>2021-04-17T20:33:11Z</time>
			</trkpt>
			<trkpt lat="35.00179167" lon="-106.32017519">
				<ele>2301.3</ele>
				<time>2021-04-17T20:33:14Z</time>
			</trkpt>
			<trkpt lat="35.00174614" lon="-106.32017865">
				<ele>2300.8</ele>
				<time>2021-04-17T20:33:18Z</time>
			</trkpt>
			<trkpt lat="35.00170191" lon="-106.32015669">
				<ele>2303</ele>
				<time>2021-04-17T20:33:23Z</time>
			</trkpt>
			<trkpt lat="35.00166424" lon="-106.32014884">
				<ele>2304.4</ele>
				<time>2021-04-17T20:33:26Z</time>
			</trkpt>
			<trkpt lat="35.00162163" lon="-106.32015586">
				<ele>2304.3</ele>
				<time>2021-04-17T20:33:30Z</time>
			</trkpt>
			<trkpt lat="35.00157683" lon="-106.32016529">
				<ele>2305.3</ele>
				<time>2021-04-17T20:33:35Z</time>
			</trkpt>
			<trkpt lat="35.00153975" lon="-106.32018173">
				<ele>2306.7</ele>
				<time>2021-04-17T20:33:39Z</time>
			</trkpt>
			<trkpt lat="35.00150518" lon="-106.32019984">
				<ele>2306.1</ele>
				<time>2021-04-17T20:33:43Z</time>
			</trkpt>
			<trkpt lat="35.00146721" lon="-106.32019677">
				<ele>2304.8</ele>
				<time>2021-04-17T20:33:48Z</time>
			</trkpt>
			<trkpt lat="35.00142706" lon="-106.32017401">
				<ele>2306.1</ele>
				<time>2021-04-17T20:33:53Z</time>
			</trkpt>
			<trkpt lat="35.00139122" lon="-106.32015477">
				<ele>2308.1</ele>
				<time>2021-04-17T20:33:58Z</time>
			</trkpt>
			<trkpt lat="35.00135042" lon="-106.32014188">
				<ele>2307.5</ele>
				<time>2021-04-17T20:34:02Z</time>
			</trkpt>
			<trkpt lat="35.00131002" lon="-106.32013965">
				<ele>2306</ele>
				<time>2021-04-17T20:34:07Z</time>
			</trkpt>
			<trkpt lat="35.00127787" lon="-106.32011238">
				<ele>2306.5</ele>
				<time>2021-04-17T20:34:11Z</time>
			</trkpt>
			<trkpt lat="35.00123827" lon="-106.32008806">
				<ele>2306</ele>
				<time>2021-04-17T20:34:15Z</time>
			</trkpt>
			<trkpt lat="35.00120584" lon="-106.32006438">
				<ele>2307</ele>
				<time>2021-04-17T20:34:19Z</time>
			</trkpt>
			<trkpt lat="35.00116389" lon="-106.32003883">
				<ele>2308</ele>
				<time>2021-04-17T20:34:23Z</time>
			</trkpt>
			<trkpt lat="35.00112016" lon="-106.3200393">
				<ele>2307.2</ele>
				<time>2021-04-17T20:34:27Z</time>
			</trkpt>
			<trkpt lat="35.00108497" lon="-106.32005672">
				<ele>2303.1</ele>
				<time>2021-04-17T20:34:31Z</time>
			</trkpt>
			<trkpt lat="35.00104382" lon="-106.32006797">
				<ele>2301.7</ele>
				<time>2021-04-17T20:34:35Z</time>
			</trkpt>
			<trkpt lat="35.00100371" lon="-106.32008338">
				<ele>2301</ele>
				<time>2021-04-17T20:34:39Z</time>
			</trkpt>
			<trkpt lat="35.00096909" lon="-106.32010227">
				<ele>2302.1</ele>
				<time>2021-04-17T20:34:43Z</time>
			</trkpt>
			<trkpt lat="35.00092693" lon="-106.32011559">
				<ele>2302.8</ele>
				<time>2021-04-17T20:34:47Z</time>
			</trkpt>
			<trkpt lat="35.00088155" lon="-106.3201225">
				<ele>2304.8</ele>
				<time>2021-04-17T20:34:51Z</time>
			</trkpt>
			<trkpt lat="35.00085033" lon="-106.3201489">
				<ele>2305.3</ele>
				<time>2021-04-17T20:34:54Z</time>
			</trkpt>
			<trkpt lat="35.00081704" lon="-106.32017383">
				<ele>2304.8</ele>
				<time>2021-04-17T20:34:58Z</time>
			</trkpt>
			<trkpt lat="35.00078226" lon="-106.32019193">
				<ele>2306.3</ele>
				<time>2021-04-17T20:35:01Z</time>
			</trkpt>
			<trkpt lat="35.00074397" lon="-106.32021333">
				<ele>2306.8</ele>
				<time>2021-04-17T20:35:05Z</time>
			</trkpt>
			<trkpt lat="35.00070761" lon="-106.32022099">
				<ele>2308</ele>
				<time>2021-04-17T20:35:08Z</time>
			</trkpt>
			<trkpt lat="35.00066197" lon="-106.32023603">
				<ele>2308.6</ele>
				<time>2021-04-17T20:35:12Z</time>
			</trkpt>
			<trkpt lat="35.00062553" lon="-106.32025047">
				<ele>2309.1</ele>
				<time>2021-04-17T20:35:16Z</time>
			</trkpt>
			<trkpt lat="35.00059254" lon="-106.32027123">
				<ele>2311.2</ele>
				<time>2021-04-17T20:35:21Z</time>
			</trkpt>
			<trkpt lat="35.00054933" lon="-106.32028684">
				<ele>2312.4</ele>
				<time>2021-04-17T20:35:28Z</time>
			</trkpt>
			<trkpt lat="35.00050588" lon="-106.32028484">
				<ele>2312.9</ele>
				<time>2021-04-17T20:35:32Z</time>
			</trkpt>
			<trkpt lat="35.00046467" lon="-106.32027011">
				<ele>2312.7</ele>
				<time>2021-04-17T20:35:37Z</time>
			</trkpt>
			<trkpt lat="35.00042864" lon="-106.32025678">
				<ele>2313.6</ele>
				<time>2021-04-17T20:35:41Z</time>
			</trkpt>
			<trkpt lat="35.00039027" lon="-106.3202385">
				<ele>2313.9</ele>
				<time>2021-04-17T20:35:45Z</time>
			</trkpt>
			<trkpt lat="35.00036054" lon="-106.32021026">
				<ele>2315.1</ele>
				<time>2021-04-17T20:35:49Z</time>
			</trkpt>
			<trkpt lat="35.0003291" lon="-106.32017894">
				<ele>2315.1</ele>
				<time>2021-04-17T20:35:54Z</time>
			</trkpt>
			<trkpt lat="35.00029928" lon="-106.32014609">
				<ele>2316.4</ele>
				<time>2021-04-17T20:35:58Z</time>
			</trkpt>
			<trkpt lat="35.00027385" lon="-106.32010917">
				<ele>2315.5</ele>
				<time>2021-04-17T20:36:02Z</time>
			</trkpt>
			<trkpt lat="35.00024185" lon="-106.32007525">
				<ele>2315.8</ele>
				<time>2021-04-17T20:36:07Z</time>
			</trkpt>
			<trkpt lat="35.0002092" lon="-106.32004438">
				<ele>2316.7</ele>
				<time>2021-04-17T20:36:12Z</time>
			</trkpt>
			<trkpt lat="35.00017598" lon="-106.32002612">
				<ele>2314.7</ele>
				<time>2021-04-17T20:36:22Z</time>
			</trkpt>
			<trkpt lat="35.00012911" lon="-106.32000834">
				<ele>2314.6</ele>
				<time>2021-04-17T20:36:26Z</time>
			</trkpt>
			<trkpt lat="35.00009445" lon="-106.31998618">
				<ele>2314.7</ele>
				<time>2021-04-17T20:36:29Z</time>
			</trkpt>
			<trkpt lat="35.00005586" lon="-106.31996353">
				<ele>2314.4</ele>
				<time>2021-04-17T20:36:33Z</time>
			</trkpt>
			<trkpt lat="35.00002048" lon="-106.31994563">
				<ele>2314.8</ele>
				<time>2021-04-17T20:36:37Z</time>
			</trkpt>
			<trkpt lat="34.99998541" lon="-106.31993032">
				<ele>2315.2</ele>
				<time>2021-04-17T20:36:41Z</time>
			</trkpt>
			<trkpt lat="34.99994971" lon="-106.3199064">
				<ele>2315</ele>
				<time>2021-04-17T20:36:47Z</time>
			</trkpt>
			<trkpt lat="34.99991573" lon="-106.31987507">
				<ele>2315.2</ele>
				<time>2021-04-17T20:36:52Z</time>
			</trkpt>
			<trkpt lat="34.99988705" lon="-106.3198389">
				<ele>2315.8</ele>
				<time>2021-04-17T20:36:58Z</time>
			</trkpt>
			<trkpt lat="34.99985048" lon="-106.3198211">
				<ele>2315.1</ele>
				<time>2021-04-17T20:37:02Z</time>
			</trkpt>
			<trkpt lat="34.99981949" lon="-106.31979513">
				<ele>2316.7</ele>
				<time>2021-04-17T20:37:06Z</time>
			</trkpt>
			<trkpt lat="34.99978284" lon="-106.31979131">
				<ele>2315.8</ele>
				<time>2021-04-17T20:37:09Z</time>
			</trkpt>
			<trkpt lat="34.99974834" lon="-106.31980963">
				<ele>2317.6</ele>
				<time>2021-04-17T20:37:36Z</time>
			</trkpt>
			<trkpt lat="34.99971084" lon="-106.31981247">
				<ele>2317.5</ele>
				<time>2021-04-17T20:37:42Z</time>
			</trkpt>
			<trkpt lat="34.99967" lon="-106.31982149">
				<ele>2316.7</ele>
				<time>2021-04-17T20:37:47Z</time>
			</trkpt>
			<trkpt lat="34.99963236" lon="-106.31983236">
				<ele>2318</ele>
				<time>2021-04-17T20:37:51Z</time>
			</trkpt>
			<trkpt lat="34.9996087" lon="-106.31986939">
				<ele>2318.2</ele>
				<time>2021-04-17T20:38:16Z</time>
			</trkpt>
			<trkpt lat="34.99957027" lon="-106.31986918">
				<ele>2317.7</ele>
				<time>2021-04-17T20:38:27Z</time>
			</trkpt>
			<trkpt lat="34.99951992" lon="-106.31987319">
				<ele>2321.5</ele>
				<time>2021-04-17T20:38:38Z</time>
			</trkpt>
			<trkpt lat="34.99948233" lon="-106.3198891">
				<ele>2322</ele>
				<time>2021-04-17T20:38:41Z</time>
			</trkpt>
			<trkpt lat="34.99944191" lon="-106.31989791">
				<ele>2319.6</ele>
				<time>2021-04-17T20:38:46Z</time>
			</trkpt>
			<trkpt lat="34.99939935" lon="-106.31990881">
				<ele>2320.1</ele>
				<time>2021-04-17T20:38:49Z</time>
			</trkpt>
			<trkpt lat="34.9993581" lon="-106.31993098">
				<ele>2320.3</ele>
				<time>2021-04-17T20:38:53Z</time>
			</trkpt>
			<trkpt lat="34.99932538" lon="-106.31995584">
				<ele>2319.7</ele>
				<time>2021-04-17T20:38:56Z</time>
			</trkpt>
			<trkpt lat="34.99929164" lon="-106.31997417">
				<ele>2317.5</ele>
				<time>2021-04-17T20:38:59Z</time>
			</trkpt>
			<trkpt lat="34.99925268" lon="-106.31995815">
				<ele>2318.4</ele>
				<time>2021-04-17T20:39:03Z</time>
			</trkpt>
			<trkpt lat="34.99921979" lon="-106.31992197">
				<ele>2317.6</ele>
				<time>2021-04-17T20:39:07Z</time>
			</trkpt>
			<trkpt lat="34.99917943" lon="-106.31992904">
				<ele>2316.4</ele>
				<time>2021-04-17T20:39:10Z</time>
			</trkpt>
			<trkpt lat="34.99913958" lon="-106.31992533">
				<ele>2316.9</ele>
				<time>2021-04-17T20:39:13Z</time>
			</trkpt>
			<trkpt lat="34.99909688" lon="-106.31990822">
				<ele>2316.4</ele>
				<time>2021-04-17T20:39:17Z</time>
			</trkpt>
			<trkpt lat="34.99906312" lon="-106.31987601">
				<ele>2316.6</ele>
				<time>2021-04-17T20:39:20Z</time>
			</trkpt>
			<trkpt lat="34.99903544" lon="-106.31983655">
				<ele>2319.1</ele>
				<time>2021-04-17T20:39:24Z</time>
			</trkpt>
			<trkpt lat="34.99902434" lon="-106.31978438">
				<ele>2317.3</ele>
				<time>2021-04-17T20:39:28Z</time>
			</trkpt>
			<trkpt lat="34.99899104" lon="-106.31975822">
				<ele>2317.9</ele>
				<time>2021-04-17T20:39:31Z</time>
			</trkpt>
			<trkpt lat="34.99895029" lon="-106.31974728">
				<ele>2318</ele>
				<time>2021-04-17T20:39:35Z</time>
			</trkpt>
			<trkpt lat="34.99891439" lon="-106.31973535">
				<ele>2321.2</ele>
				<time>2021-04-17T20:39:59Z</time>
			</trkpt>
			<trkpt lat="34.99888021" lon="-106.31976924">
				<ele>2318.5</ele>
				<time>2021-04-17T20:40:04Z</time>
			</trkpt>
			<trkpt lat="34.99883638" lon="-106.3197865">
				<ele>2317.3</ele>
				<time>2021-04-17T20:40:09Z</time>
			</trkpt>
			<trkpt lat="34.99880011" lon="-106.31979045">
				<ele>2317.8</ele>
				<time>2021-04-17T20:40:13Z</time>
			</trkpt>
			<trkpt lat="34.99876888" lon="-106.31974869">
				<ele>2319.8</ele>
				<time>2021-04-17T20:40:18Z</time>
			</trkpt>
			<trkpt lat="34.99875163" lon="-106.31970234">
				<ele>2321</ele>
				<time>2021-04-17T20:40:24Z</time>
			</trkpt>
			<trkpt lat="34.99872068" lon="-106.31966853">
				<ele>2322.8</ele>
				<time>2021-04-17T20:40:28Z</time>
			</trkpt>
			<trkpt lat="34.99867884" lon="-106.31964999">
				<ele>2323.6</ele>
				<time>2021-04-17T20:40:33Z</time>
			</trkpt>
			<trkpt lat="34.99865258" lon="-106.31961613">
				<ele>2324.5</ele>
				<time>2021-04-17T20:40:37Z</time>
			</trkpt>
			<trkpt lat="34.99861771" lon="-106.319596">
				<ele>2324.5</ele>
				<time>2021-04-17T20:40:41Z</time>
			</trkpt>
			<trkpt lat="34.99857876" lon="-106.31958624">
				<ele>2323.2</ele>
				<time>2021-04-17T20:40:45Z</time>
			</trkpt>
			<trkpt lat="34.99853745" lon="-106.31956316">
				<ele>2321.4</ele>
				<time>2021-04-17T20:41:55Z</time>
			</trkpt>
			<trkpt lat="34.99849709" lon="-106.31956946">
				<ele>2319.7</ele>
				<time>2021-04-17T20:42:00Z</time>
			</trkpt>
			<trkpt lat="34.99846937" lon="-106.31954098">
				<ele>2320.3</ele>
				<time>2021-04-17T20:42:04Z</time>
			</trkpt>
			<trkpt lat="34.99843387" lon="-106.31953084">
				<ele>2317.2</ele>
				<time>2021-04-17T20:42:18Z</time>
			</trkpt>
			<trkpt lat="34.99846827" lon="-106.31955216">
				<ele>2314.1</ele>
				<time>2021-04-17T20:45:07Z</time>
			</trkpt>
			<trkpt lat="34.99845171" lon="-106.3195101">
				<ele>2313.6</ele>
				<time>2021-04-17T20:45:30Z</time>
			</trkpt>
			<trkpt lat="34.99843021" lon="-106.31946742">
				<ele>2313.5</ele>
				<time>2021-04-17T20:45:35Z</time>
			</trkpt>
			<trkpt lat="34.99839411" lon="-106.31944316">
				<ele>2314.2</ele>
				<time>2021-04-17T20:45:42Z</time>
			</trkpt>
			<trkpt lat="34.99835089" lon="-106.31944336">
				<ele>2313</ele>
				<time>2021-04-17T20:45:50Z</time>
			</trkpt>
			<trkpt lat="34.99832721" lon="-106.3194767">
				<ele>2314.8</ele>
				<time>2021-04-17T20:45:54Z</time>
			</trkpt>
			<trkpt lat="34.99828846" lon="-106.31946729">
				<ele>2311.8</ele>
				<time>2021-04-17T20:47:40Z</time>
			</trkpt>
			<trkpt lat="34.99825249" lon="-106.31947236">
				<ele>2311.1</ele>
				<time>2021-04-17T20:47:45Z</time>
			</trkpt>
			<trkpt lat="34.99821519" lon="-106.3194913">
				<ele>2311.7</ele>
				<time>2021-04-17T20:47:50Z</time>
			</trkpt>
			<trkpt lat="34.9981842" lon="-106.31951594">
				<ele>2311.7</ele>
				<time>2021-04-17T20:47:56Z</time>
			</trkpt>
			<trkpt lat="34.9981483" lon="-106.31953816">
				<ele>2312.1</ele>
				<time>2021-04-17T20:48:02Z</time>
			</trkpt>
			<trkpt lat="34.99811099" lon="-106.31954093">
				<ele>2311.2</ele>
				<time>2021-04-17T20:48:06Z</time>
			</trkpt>
			<trkpt lat="34.99807814" lon="-106.31956642">
				<ele>2311.1</ele>
				<time>2021-04-17T20:48:11Z</time>
			</trkpt>
			<trkpt lat="34.99803953" lon="-106.3195918">
				<ele>2310.9</ele>
				<time>2021-04-17T20:48:16Z</time>
			</trkpt>
			<trkpt lat="34.99799669" lon="-106.31959448">
				<ele>2312</ele>
				<time>2021-04-17T20:48:21Z</time>
			</trkpt>
			<trkpt lat="34.99796298" lon="-106.31957885">
				<ele>2312.1</ele>
				<time>2021-04-17T20:48:26Z</time>
			</trkpt>
			<trkpt lat="34.99792663" lon="-106.31955677">
				<ele>2311.6</ele>
				<time>2021-04-17T20:48:31Z</time>
			</trkpt>
			<trkpt lat="34.99788414" lon="-106.31956568">
				<ele>2312.9</ele>
				<time>2021-04-17T20:48:36Z</time>
			</trkpt>
			<trkpt lat="34.99784787" lon="-106.31956441">
				<ele>2314.3</ele>
				<time>2021-04-17T20:48:46Z</time>
			</trkpt>
			<trkpt lat="34.99781612" lon="-106.31954315">
				<ele>2315.5</ele>
				<time>2021-04-17T20:48:58Z</time>
			</trkpt>
			<trkpt lat="34.997812" lon="-106.31959378">
				<ele>2313.6</ele>
				<time>2021-04-17T20:49:06Z</time>
			</trkpt>
			<trkpt lat="34.99780011" lon="-106.31963752">
				<ele>2312.3</ele>
				<time>2021-04-17T20:49:19Z</time>
			</trkpt>
			<trkpt lat="34.99778277" lon="-106.31967859">
				<ele>2312.7</ele>
				<time>2021-04-17T20:49:24Z</time>
			</trkpt>
			<trkpt lat="34.99775021" lon="-106.31970778">
				<ele>2313.9</ele>
				<time>2021-04-17T20:49:30Z</time>
			</trkpt>
			<trkpt lat="34.99771341" lon="-106.31970892">
				<ele>2313.9</ele>
				<time>2021-04-17T20:49:35Z</time>
			</trkpt>
			<trkpt lat="34.99767769" lon="-106.31971887">
				<ele>2314.7</ele>
				<time>2021-04-17T20:49:41Z</time>
			</trkpt>
			<trkpt lat="34.99764372" lon="-106.31970318">
				<ele>2317.7</ele>
				<time>2021-04-17T20:52:54Z</time>
			</trkpt>
			<trkpt lat="34.99760953" lon="-106.31968017">
				<ele>2318.6</ele>
				<time>2021-04-17T20:53:22Z</time>
			</trkpt>
			<trkpt lat="34.99760658" lon="-106.31972518">
				<ele>2316</ele>
				<time>2021-04-17T20:54:03Z</time>
			</trkpt>
			<trkpt lat="34.99757076" lon="-106.31970429">
				<ele>2316.4</ele>
				<time>2021-04-17T20:54:33Z</time>
			</trkpt>
			<trkpt lat="34.99753177" lon="-106.31971902">
				<ele>2316.4</ele>
				<time>2021-04-17T20:54:53Z</time>
			</trkpt>
			<trkpt lat="34.99753111" lon="-106.31977102">
				<ele>2314.5</ele>
				<time>2021-04-17T20:54:59Z</time>
			</trkpt>
			<trkpt lat="34.99752682" lon="-106.31981553">
				<ele>2315.7</ele>
				<time>2021-04-17T20:55:35Z</time>
			</trkpt>
			<trkpt lat="34.99748243" lon="-106.31981346">
				<ele>2317.5</ele>
				<time>2021-04-17T20:56:39Z</time>
			</trkpt>
			<trkpt lat="34.99744579" lon="-106.31982354">
				<ele>2316.5</ele>
				<time>2021-04-17T20:56:43Z</time>
			</trkpt>
			<trkpt lat="34.99741019" lon="-106.31984724">
				<ele>2318.5</ele>
				<time>2021-04-17T20:56:49Z</time>
			</trkpt>
			<trkpt lat="34.9973754" lon="-106.31983293">
				<ele>2319.6</ele>
				<time>2021-04-17T20:56:53Z</time>
			</trkpt>
			<trkpt lat="34.99734246" lon="-106.31986067">
				<ele>2318.2</ele>
				<time>2021-04-17T20:56:58Z</time>
			</trkpt>
			<trkpt lat="34.9972989" lon="-106.31986802">
				<ele>2319.7</ele>
				<time>2021-04-17T20:57:03Z</time>
			</trkpt>
			<trkpt lat="34.99726844" lon="-106.31984093">
				<ele>2321.8</ele>
				<time>2021-04-17T20:57:09Z</time>
			</trkpt>
			<trkpt lat="34.99722671" lon="-106.3198255">
				<ele>2322.5</ele>
				<time>2021-04-17T20:57:16Z</time>
			</trkpt>
			<trkpt lat="34.99718476" lon="-106.31983094">
				<ele>2321</ele>
				<time>2021-04-17T20:57:20Z</time>
			</trkpt>
			<trkpt lat="34.99714888" lon="-106.31983747">
				<ele>2320.7</ele>
				<time>2021-04-17T20:57:24Z</time>
			</trkpt>
			<trkpt lat="34.99711095" lon="-106.31985091">
				<ele>2320.9</ele>
				<time>2021-04-17T20:57:36Z</time>
			</trkpt>
			<trkpt lat="34.99709578" lon="-106.31989607">
				<ele>2319.8</ele>
				<time>2021-04-17T20:57:47Z</time>
			</trkpt>
			<trkpt lat="34.99708819" lon="-106.31994335">
				<ele>2319.8</ele>
				<time>2021-04-17T20:57:55Z</time>
			</trkpt>
			<trkpt lat="34.99711447" lon="-106.31998136">
				<ele>2317.4</ele>
				<time>2021-04-17T20:58:00Z</time>
			</trkpt>
			<trkpt lat="34.99713613" lon="-106.32002063">
				<ele>2316.1</ele>
				<time>2021-04-17T20:58:07Z</time>
			</trkpt>
			<trkpt lat="34.99714562" lon="-106.32006638">
				<ele>2316.2</ele>
				<time>2021-04-17T20:58:13Z</time>
			</trkpt>
			<trkpt lat="34.99712493" lon="-106.32010734">
				<ele>2316.3</ele>
				<time>2021-04-17T20:58:17Z</time>
			</trkpt>
			<trkpt lat="34.99708673" lon="-106.32011364">
				<ele>2316.4</ele>
				<time>2021-04-17T20:58:24Z</time>
			</trkpt>
			<trkpt lat="34.99705087" lon="-106.32012656">
				<ele>2315.7</ele>
				<time>2021-04-17T20:58:29Z</time>
			</trkpt>
			<trkpt lat="34.99701568" lon="-106.32011386">
				<ele>2316.1</ele>
				<time>2021-04-17T20:58:34Z</time>
			</trkpt>
			<trkpt lat="34.99697578" lon="-106.32012186">
				<ele>2315.9</ele>
				<time>2021-04-17T20:58:39Z</time>
			</trkpt>
			<trkpt lat="34.99693883" lon="-106.32011475">
				<ele>2317.3</ele>
				<time>2021-04-17T20:58:43Z</time>
			</trkpt>
			<trkpt lat="34.99690006" lon="-106.32010054">
				<ele>2317.5</ele>
				<time>2021-04-17T20:58:48Z</time>
			</trkpt>
			<trkpt lat="34.99686214" lon="-106.32007696">
				<ele>2317.4</ele>
				<time>2021-04-17T20:58:53Z</time>
			</trkpt>
			<trkpt lat="34.9968418" lon="-106.32003908">
				<ele>2314.8</ele>
				<time>2021-04-17T20:58:58Z</time>
			</trkpt>
			<trkpt lat="34.99682018" lon="-106.31999127">
				<ele>2315.6</ele>
				<time>2021-04-17T20:59:03Z</time>
			</trkpt>
			<trkpt lat="34.99678647" lon="-106.31996395">
				<ele>2313.8</ele>
				<time>2021-04-17T20:59:08Z</time>
			</trkpt>
			<trkpt lat="34.99675513" lon="-106.31993487">
				<ele>2310.5</ele>
				<time>2021-04-17T20:59:12Z</time>
			</trkpt>
			<trkpt lat="34.99671815" lon="-106.31990407">
				<ele>2309.8</ele>
				<time>2021-04-17T20:59:16Z</time>
			</trkpt>
			<trkpt lat="34.99668772" lon="-106.31987723">
				<ele>2310.9</ele>
				<time>2021-04-17T20:59:20Z</time>
			</trkpt>
			<trkpt lat="34.996644" lon="-106.31987029">
				<ele>2313.2</ele>
				<time>2021-04-17T20:59:24Z</time>
			</trkpt>
			<trkpt lat="34.9966043" lon="-106.31986607">
				<ele>2314.1</ele>
				<time>2021-04-17T20:59:28Z</time>
			</trkpt>
			<trkpt lat="34.99660358" lon="-106.31991119">
				<ele>2312.4</ele>
				<time>2021-04-17T21:00:16Z</time>
			</trkpt>
			<trkpt lat="34.99664293" lon="-106.31990383">
				<ele>2314</ele>
				<time>2021-04-17T21:00:23Z</time>
			</trkpt>
			<trkpt lat="34.99667355" lon="-106.3199298">
				<ele>2315.3</ele>
				<time>2021-04-17T21:00:29Z</time>
			</trkpt>
			<trkpt lat="34.99670157" lon="-106.31996933">
				<ele>2315.9</ele>
				<time>2021-04-17T21:00:35Z</time>
			</trkpt>
			<trkpt lat="34.99674433" lon="-106.31998713">
				<ele>2315</ele>
				<time>2021-04-17T21:00:41Z</time>
			</trkpt>
			<trkpt lat="34.99677582" lon="-106.32001192">
				<ele>2314.9</ele>
				<time>2021-04-17T21:02:08Z</time>
			</trkpt>
			<trkpt lat="34.99681172" lon="-106.32000665">
				<ele>2315.9</ele>
				<time>2021-04-17T21:02:18Z</time>
			</trkpt>
			<trkpt lat="34.99685365" lon="-106.3200136">
				<ele>2316.8</ele>
				<time>2021-04-17T21:03:11Z</time>
			</trkpt>
			<trkpt lat="34.99689072" lon="-106.31999432">
				<ele>2317.6</ele>
				<time>2021-04-17T21:03:15Z</time>
			</trkpt>
			<trkpt lat="34.99692858" lon="-106.31998676">
				<ele>2317.4</ele>
				<time>2021-04-17T21:03:18Z</time>
			</trkpt>
			<trkpt lat="34.99696821" lon="-106.32000388">
				<ele>2317</ele>
				<time>2021-04-17T21:03:25Z</time>
			</trkpt>
			<trkpt lat="34.99700603" lon="-106.32000001">
				<ele>2317.8</ele>
				<time>2021-04-17T21:03:29Z</time>
			</trkpt>
			<trkpt lat="34.99704145" lon="-106.31997172">
				<ele>2317.7</ele>
				<time>2021-04-17T21:03:37Z</time>
			</trkpt>
			<trkpt lat="34.99704732" lon="-106.31991689">
				<ele>2315.7</ele>
				<time>2021-04-17T21:03:41Z</time>
			</trkpt>
			<trkpt lat="34.99705923" lon="-106.31986391">
				<ele>2314.7</ele>
				<time>2021-04-17T21:03:45Z</time>
			</trkpt>
			<trkpt lat="34.99707857" lon="-106.31982406">
				<ele>2314.9</ele>
				<time>2021-04-17T21:03:49Z</time>
			</trkpt>
			<trkpt lat="34.99707226" lon="-106.31977806">
				<ele>2314.2</ele>
				<time>2021-04-17T21:03:55Z</time>
			</trkpt>
			<trkpt lat="34.99702685" lon="-106.31977161">
				<ele>2312.9</ele>
				<time>2021-04-17T21:04:00Z</time>
			</trkpt>
			<trkpt lat="34.99698913" lon="-106.31976148">
				<ele>2314.1</ele>
				<time>2021-04-17T21:04:05Z</time>
			</trkpt>
			<trkpt lat="34.99697215" lon="-106.31972276">
				<ele>2315.5</ele>
				<time>2021-04-17T21:05:06Z</time>
			</trkpt>
			<trkpt lat="34.99693219" lon="-106.31972597">
				<ele>2313.8</ele>
				<time>2021-04-17T21:05:53Z</time>
			</trkpt>
			<trkpt lat="34.99690207" lon="-106.31975128">
				<ele>2312.1</ele>
				<time>2021-04-17T21:06:32Z</time>
			</trkpt>
			<trkpt lat="34.99686997" lon="-106.31978573">
				<ele>2311</ele>
				<time>2021-04-17T21:06:45Z</time>
			</trkpt>
			<trkpt lat="34.99683295" lon="-106.31979737">
				<ele>2312.7</ele>
				<time>2021-04-17T21:07:01Z</time>
			</trkpt>
			<trkpt lat="34.99679945" lon="-106.31977936">
				<ele>2312.9</ele>
				<time>2021-04-17T21:07:45Z</time>
			</trkpt>
			<trkpt lat="34.99675792" lon="-106.3197966">
				<ele>2312.8</ele>
				<time>2021-04-17T21:08:00Z</time>
			</trkpt>
			<trkpt lat="34.99672215" lon="-106.31977318">
				<ele>2314.3</ele>
				<time>2021-04-17T21:08:05Z</time>
			</trkpt>
			<trkpt lat="34.99668467" lon="-106.31978827">
				<ele>2313.5</ele>
				<time>2021-04-17T21:08:09Z</time>
			</trkpt>
			<trkpt lat="34.99664551" lon="-106.31980016">
				<ele>2313.9</ele>
				<time>2021-04-17T21:08:13Z</time>
			</trkpt>
			<trkpt lat="34.99661483" lon="-106.31983628">
				<ele>2314</ele>
				<time>2021-04-17T21:08:17Z</time>
			</trkpt>
			<trkpt lat="34.99657865" lon="-106.31985567">
				<ele>2313.2</ele>
				<time>2021-04-17T21:08:22Z</time>
			</trkpt>
			<trkpt lat="34.99653825" lon="-106.31984196">
				<ele>2315.4</ele>
				<time>2021-04-17T21:10:03Z</time>
			</trkpt>
			<trkpt lat="34.99649926" lon="-106.3198207">
				<ele>2316.4</ele>
				<time>2021-04-17T21:10:07Z</time>
			</trkpt>
		</trkseg>
	</trk>
</gpx>
